DLH518 EDDF-MROC
Flight info
| Callsign | DLH518 |
|---|---|
| Flight time | 11h 35m |
| Altitude | 30000 |
| Route | ULKIG Y180 DIK UN857 TOLVU/N0486F310 DCT RAPOR DCT GIMER DCT ESTOC DCT PON DCT DITAL DCT GODIX DCT DIDAK DCT AKEMO DCT RIVAK/M081F300 DCT SIVIR DCT BERUX/N0480F300 DCT KOPAS/M083F340 DCT 41N020W 37N030W 34N040W 31N050W/M083F360 2830N06000W DCT MLLER/N0482F360 DCT MNDEZ M594 CERDA/N0473F380 A554 GTK M594 ALBBE UM594 GABUN/N0472F390 UM594 COLBY/N0470F400 DCT SPP UP798 COLOR BARRA4C |
| Aircraft | A343/H-SDE2E3FGHIJ4J5M1RWXY/LB1D1 |
Departure
| Time | 2026-04-16 23:31 |
|---|---|
| Airport | Frankfurt Main Airport (EDDF) |
Arrival
| Time | 2026-04-17 11:06 |
|---|---|
| Airport | Juan Santamaría International Airport (MROC) |
| Time | Latitude | Longitude | Altitude | Speed | Heading |
|---|---|---|---|---|---|
| 2026-04-16 23:09 | 50.04904 | 8.58795 | 366 ft | 0 kts | 160° |
| 2026-04-16 23:24 | 50.04908 | 8.58793 | 370 ft | 3 kts | 160° |
| 2026-04-16 23:24 | 50.04932 | 8.58778 | 367 ft | 4 kts | 158° |
| 2026-04-16 23:24 | 50.04954 | 8.58765 | 369 ft | 4 kts | 175° |
| 2026-04-16 23:25 | 50.04975 | 8.58773 | 366 ft | 4 kts | 240° |
| 2026-04-16 23:25 | 50.04984 | 8.58809 | 367 ft | 2 kts | 249° |
| 2026-04-16 23:25 | 50.04986 | 8.58817 | 369 ft | 0 kts | 249° |
| 2026-04-16 23:27 | 50.04985 | 8.58813 | 368 ft | 3 kts | 249° |
| 2026-04-16 23:27 | 50.04969 | 8.58748 | 373 ft | 7 kts | 249° |
| 2026-04-16 23:28 | 50.04925 | 8.58681 | 370 ft | 11 kts | 197° |
| 2026-04-16 23:28 | 50.04840 | 8.58710 | 370 ft | 17 kts | 160° |
| 2026-04-16 23:28 | 50.04724 | 8.58766 | 370 ft | 16 kts | 173° |
| 2026-04-16 23:28 | 50.04631 | 8.58752 | 370 ft | 0 kts | 195° |
| 2026-04-16 23:29 | 50.04587 | 8.58713 | 375 ft | 15 kts | 215° |
| 2026-04-16 23:29 | 50.04480 | 8.58543 | 372 ft | 29 kts | 241° |
| 2026-04-16 23:29 | 50.04365 | 8.58092 | 372 ft | 69 kts | 250° |
| 2026-04-16 23:30 | 50.04138 | 8.57128 | 374 ft | 118 kts | 250° |
| 2026-04-16 23:30 | 50.03802 | 8.55708 | 367 ft | 160 kts | 250° |
| 2026-04-16 23:30 | 50.03399 | 8.53927 | 529 ft | 182 kts | 251° |
| 2026-04-16 23:30 | 50.02966 | 8.52018 | 948 ft | 193 kts | 252° |
| 2026-04-16 23:31 | 50.02584 | 8.50002 | 1392 ft | 205 kts | 252° |
| 2026-04-16 23:31 | 50.02051 | 8.47745 | 1543 ft | 236 kts | 249° |
| 2026-04-16 23:31 | 50.01479 | 8.45271 | 1895 ft | 249 kts | 251° |
| 2026-04-16 23:31 | 50.00937 | 8.42682 | 2439 ft | 254 kts | 252° |
| 2026-04-16 23:32 | 50.00417 | 8.40040 | 3066 ft | 256 kts | 253° |
| 2026-04-16 23:32 | 49.99692 | 8.37504 | 3661 ft | 259 kts | 237° |
| 2026-04-16 23:32 | 49.98449 | 8.35486 | 4267 ft | 262 kts | 213° |
| 2026-04-16 23:32 | 49.96798 | 8.34276 | 4902 ft | 263 kts | 202° |
| 2026-04-16 23:33 | 49.95255 | 8.32753 | 5462 ft | 265 kts | 224° |
| 2026-04-16 23:33 | 49.94192 | 8.30446 | 6078 ft | 265 kts | 247° |
| 2026-04-16 23:33 | 49.93595 | 8.27742 | 6705 ft | 266 kts | 255° |
| 2026-04-16 23:33 | 49.93211 | 8.24968 | 7264 ft | 268 kts | 260° |
| 2026-04-16 23:34 | 49.92928 | 8.22097 | 7816 ft | 270 kts | 262° |
| 2026-04-16 23:34 | 49.92679 | 8.19192 | 8378 ft | 273 kts | 262° |
| 2026-04-16 23:34 | 49.92426 | 8.16266 | 8924 ft | 275 kts | 261° |
| 2026-04-16 23:34 | 49.92153 | 8.13319 | 9477 ft | 277 kts | 261° |
| 2026-04-16 23:35 | 49.91860 | 8.10349 | 10013 ft | 280 kts | 261° |
| 2026-04-16 23:35 | 49.91549 | 8.07365 | 10501 ft | 282 kts | 260° |
| 2026-04-16 23:35 | 49.91232 | 8.04399 | 10974 ft | 283 kts | 260° |
| 2026-04-16 23:35 | 49.90903 | 8.01375 | 11444 ft | 285 kts | 261° |
| 2026-04-16 23:36 | 49.90571 | 7.98338 | 11929 ft | 286 kts | 261° |
| 2026-04-16 23:36 | 49.90237 | 7.95289 | 12410 ft | 288 kts | 261° |
| 2026-04-16 23:36 | 49.89901 | 7.92218 | 12878 ft | 290 kts | 261° |
| 2026-04-16 23:36 | 49.89563 | 7.89128 | 13351 ft | 291 kts | 261° |
| 2026-04-16 23:37 | 49.89223 | 7.86022 | 13812 ft | 293 kts | 261° |
| 2026-04-16 23:37 | 49.88881 | 7.82906 | 14229 ft | 295 kts | 262° |
| 2026-04-16 23:37 | 49.88531 | 7.79715 | 14443 ft | 305 kts | 262° |
| 2026-04-16 23:37 | 49.88174 | 7.76468 | 14588 ft | 315 kts | 261° |
| 2026-04-16 23:38 | 49.87798 | 7.73062 | 14754 ft | 326 kts | 261° |
| 2026-04-16 23:38 | 49.87409 | 7.69548 | 14913 ft | 336 kts | 261° |
| 2026-04-16 23:38 | 49.87006 | 7.65920 | 15091 ft | 347 kts | 261° |
| 2026-04-16 23:38 | 49.86588 | 7.62182 | 15255 ft | 357 kts | 261° |
| 2026-04-16 23:39 | 49.86158 | 7.58336 | 15451 ft | 367 kts | 261° |
| 2026-04-16 23:39 | 49.85713 | 7.54382 | 15614 ft | 377 kts | 261° |
| 2026-04-16 23:39 | 49.85257 | 7.50338 | 15903 ft | 384 kts | 261° |
| 2026-04-16 23:39 | 49.84800 | 7.46303 | 16294 ft | 387 kts | 261° |
| 2026-04-16 23:40 | 49.84333 | 7.42192 | 16736 ft | 389 kts | 261° |
| 2026-04-16 23:40 | 49.83861 | 7.38054 | 17179 ft | 391 kts | 261° |
| 2026-04-16 23:40 | 49.83387 | 7.33897 | 17623 ft | 393 kts | 261° |
| 2026-04-16 23:40 | 49.82909 | 7.29725 | 18062 ft | 395 kts | 261° |
| 2026-04-16 23:41 | 49.82426 | 7.25524 | 18466 ft | 397 kts | 261° |
| 2026-04-16 23:41 | 49.81940 | 7.21310 | 18853 ft | 399 kts | 261° |
| 2026-04-16 23:41 | 49.81450 | 7.17075 | 19228 ft | 401 kts | 261° |
| 2026-04-16 23:41 | 49.80955 | 7.12817 | 19615 ft | 403 kts | 261° |
| 2026-04-16 23:42 | 49.80463 | 7.08593 | 19986 ft | 405 kts | 261° |
| 2026-04-16 23:42 | 49.79961 | 7.04302 | 20355 ft | 407 kts | 261° |
| 2026-04-16 23:42 | 49.79454 | 6.99985 | 20721 ft | 408 kts | 261° |
| 2026-04-16 23:42 | 49.78943 | 6.95655 | 21084 ft | 410 kts | 261° |
| 2026-04-16 23:43 | 49.78428 | 6.91296 | 21437 ft | 412 kts | 261° |
| 2026-04-16 23:43 | 49.77911 | 6.86928 | 21789 ft | 414 kts | 261° |
| 2026-04-16 23:43 | 49.77390 | 6.82535 | 22129 ft | 416 kts | 261° |
| 2026-04-16 23:43 | 49.76865 | 6.78132 | 22446 ft | 418 kts | 261° |
| 2026-04-16 23:44 | 49.76341 | 6.73756 | 22771 ft | 420 kts | 261° |
| 2026-04-16 23:44 | 49.75807 | 6.69298 | 23099 ft | 422 kts | 261° |
| 2026-04-16 23:44 | 49.75268 | 6.64824 | 23426 ft | 424 kts | 261° |
| 2026-04-16 23:44 | 49.74725 | 6.60337 | 23735 ft | 426 kts | 261° |
| 2026-04-16 23:45 | 49.74177 | 6.55832 | 24019 ft | 427 kts | 261° |
| 2026-04-16 23:45 | 49.73626 | 6.51313 | 24308 ft | 428 kts | 261° |
| 2026-04-16 23:45 | 49.73072 | 6.46780 | 24592 ft | 429 kts | 261° |
| 2026-04-16 23:45 | 49.72516 | 6.42245 | 24865 ft | 430 kts | 261° |
| 2026-04-16 23:46 | 49.71957 | 6.37696 | 25130 ft | 431 kts | 261° |
| 2026-04-16 23:46 | 49.71401 | 6.33194 | 25393 ft | 432 kts | 261° |
| 2026-04-16 23:46 | 49.70834 | 6.28624 | 25651 ft | 434 kts | 261° |
| 2026-04-16 23:46 | 49.70265 | 6.24047 | 25905 ft | 435 kts | 261° |
| 2026-04-16 23:47 | 49.69694 | 6.19463 | 26158 ft | 435 kts | 261° |
| 2026-04-16 23:47 | 49.69119 | 6.14868 | 26411 ft | 436 kts | 261° |
| 2026-04-16 23:47 | 49.68540 | 6.10255 | 26656 ft | 437 kts | 261° |
| 2026-04-16 23:47 | 49.67959 | 6.05641 | 26895 ft | 438 kts | 261° |
| 2026-04-16 23:48 | 49.67375 | 6.01021 | 27140 ft | 439 kts | 261° |
| 2026-04-16 23:48 | 49.66787 | 5.96387 | 27382 ft | 440 kts | 261° |
| 2026-04-16 23:48 | 49.66204 | 5.91813 | 27596 ft | 441 kts | 261° |
| 2026-04-16 23:48 | 49.65611 | 5.87162 | 27833 ft | 442 kts | 261° |
| 2026-04-16 23:49 | 49.65014 | 5.82506 | 28030 ft | 443 kts | 260° |
| 2026-04-16 23:49 | 49.64414 | 5.77838 | 28237 ft | 444 kts | 260° |
| 2026-04-16 23:49 | 49.63810 | 5.73157 | 28456 ft | 445 kts | 260° |
| 2026-04-16 23:49 | 49.63203 | 5.68472 | 28675 ft | 446 kts | 260° |
| 2026-04-16 23:50 | 49.62594 | 5.63783 | 28880 ft | 447 kts | 260° |
| 2026-04-16 23:50 | 49.61982 | 5.59087 | 29123 ft | 446 kts | 260° |
| 2026-04-16 23:50 | 49.61377 | 5.54462 | 29420 ft | 445 kts | 260° |
| 2026-04-16 23:50 | 49.60765 | 5.49799 | 29743 ft | 443 kts | 260° |
| 2026-04-16 23:51 | 49.60153 | 5.45155 | 30056 ft | 441 kts | 260° |
| 2026-04-16 23:51 | 49.59543 | 5.40535 | 30335 ft | 440 kts | 260° |
| 2026-04-16 23:51 | 49.58931 | 5.35919 | 30548 ft | 439 kts | 259° |
| 2026-04-16 23:51 | 49.58319 | 5.31311 | 30718 ft | 439 kts | 259° |
| 2026-04-16 23:52 | 49.57705 | 5.26698 | 30907 ft | 439 kts | 259° |
| 2026-04-16 23:52 | 49.57090 | 5.22103 | 31101 ft | 438 kts | 259° |
| 2026-04-16 23:52 | 49.56472 | 5.17497 | 31234 ft | 439 kts | 259° |
| 2026-04-16 23:53 | 49.55245 | 5.08392 | 31257 ft | 435 kts | 259° |
| 2026-04-16 23:53 | 49.54009 | 4.99290 | 31252 ft | 434 kts | 259° |
| 2026-04-16 23:54 | 49.52765 | 4.90182 | 31257 ft | 435 kts | 259° |
| 2026-04-16 23:54 | 49.51513 | 4.81067 | 31258 ft | 436 kts | 259° |
| 2026-04-16 23:55 | 49.50262 | 4.72012 | 31253 ft | 436 kts | 259° |
| 2026-04-16 23:55 | 49.48994 | 4.62900 | 31252 ft | 436 kts | 259° |
| 2026-04-16 23:56 | 49.47718 | 4.53784 | 31255 ft | 436 kts | 259° |
| 2026-04-16 23:56 | 49.46436 | 4.44679 | 31251 ft | 436 kts | 258° |
| 2026-04-16 23:57 | 49.45156 | 4.35648 | 31260 ft | 435 kts | 258° |
| 2026-04-16 23:57 | 49.43862 | 4.26566 | 31250 ft | 435 kts | 258° |
| 2026-04-16 23:58 | 49.42559 | 4.17482 | 31253 ft | 435 kts | 258° |
| 2026-04-16 23:58 | 49.41259 | 4.08470 | 31252 ft | 435 kts | 258° |
| 2026-04-16 23:59 | 49.39943 | 3.99396 | 31253 ft | 435 kts | 258° |
| 2026-04-16 23:59 | 49.38618 | 3.90321 | 31249 ft | 435 kts | 258° |
| 2026-04-17 00:00 | 49.37288 | 3.81262 | 31247 ft | 435 kts | 258° |
| 2026-04-17 00:00 | 49.35958 | 3.72266 | 31250 ft | 435 kts | 258° |
| 2026-04-17 00:01 | 49.34613 | 3.63208 | 31252 ft | 435 kts | 258° |
| 2026-04-17 00:01 | 49.33261 | 3.54157 | 31248 ft | 435 kts | 258° |
| 2026-04-17 00:02 | 49.31904 | 3.45125 | 31247 ft | 435 kts | 258° |
| 2026-04-17 00:02 | 49.30548 | 3.36159 | 31248 ft | 435 kts | 258° |
| 2026-04-17 00:03 | 49.29179 | 3.27146 | 31250 ft | 435 kts | 257° |
| 2026-04-17 00:03 | 49.27802 | 3.18136 | 31249 ft | 435 kts | 257° |
| 2026-04-17 00:04 | 49.26416 | 3.09123 | 31251 ft | 435 kts | 257° |
| 2026-04-17 00:04 | 49.25031 | 3.00165 | 31245 ft | 436 kts | 257° |
| 2026-04-17 00:05 | 49.23628 | 2.91140 | 31248 ft | 436 kts | 257° |
| 2026-04-17 00:05 | 49.22218 | 2.82116 | 31246 ft | 436 kts | 257° |
| 2026-04-17 00:06 | 49.20800 | 2.73095 | 31242 ft | 436 kts | 257° |
| 2026-04-17 00:06 | 49.19384 | 2.64138 | 31243 ft | 436 kts | 257° |
| 2026-04-17 00:07 | 49.17951 | 2.55120 | 31240 ft | 437 kts | 257° |
| 2026-04-17 00:07 | 49.16508 | 2.46091 | 31239 ft | 437 kts | 257° |
| 2026-04-17 00:08 | 49.15060 | 2.37076 | 31239 ft | 437 kts | 257° |
| 2026-04-17 00:08 | 49.13603 | 2.28059 | 31240 ft | 437 kts | 257° |
| 2026-04-17 00:09 | 49.12150 | 2.19111 | 31243 ft | 437 kts | 257° |
| 2026-04-17 00:09 | 49.10682 | 2.10122 | 31239 ft | 437 kts | 257° |
| 2026-04-17 00:10 | 49.08856 | 2.01291 | 31241 ft | 437 kts | 248° |
| 2026-04-17 00:10 | 49.06409 | 1.92790 | 31231 ft | 438 kts | 247° |
| 2026-04-17 00:11 | 49.03872 | 1.84401 | 31236 ft | 439 kts | 246° |
| 2026-04-17 00:11 | 49.01297 | 1.75950 | 31237 ft | 440 kts | 246° |
| 2026-04-17 00:12 | 48.98731 | 1.67517 | 31238 ft | 439 kts | 246° |
| 2026-04-17 00:12 | 48.96166 | 1.59092 | 31238 ft | 438 kts | 246° |
| 2026-04-17 00:13 | 48.93614 | 1.50732 | 31236 ft | 438 kts | 246° |
| 2026-04-17 00:13 | 48.91040 | 1.42327 | 31237 ft | 439 kts | 246° |
| 2026-04-17 00:14 | 48.88463 | 1.33922 | 31236 ft | 438 kts | 247° |
| 2026-04-17 00:14 | 48.86190 | 1.25340 | 31239 ft | 438 kts | 249° |
| 2026-04-17 00:15 | 48.83997 | 1.16794 | 31237 ft | 437 kts | 249° |
| 2026-04-17 00:15 | 48.81800 | 1.08184 | 31238 ft | 437 kts | 249° |
| 2026-04-17 00:16 | 48.79599 | 0.99585 | 31239 ft | 437 kts | 249° |
| 2026-04-17 00:16 | 48.77389 | 0.90990 | 31238 ft | 437 kts | 249° |
| 2026-04-17 00:17 | 48.75189 | 0.82473 | 31237 ft | 437 kts | 249° |
| 2026-04-17 00:17 | 48.72968 | 0.73909 | 31238 ft | 436 kts | 249° |
| 2026-04-17 00:18 | 48.70745 | 0.65366 | 31239 ft | 436 kts | 249° |
| 2026-04-17 00:18 | 48.68512 | 0.56816 | 31237 ft | 436 kts | 249° |
| 2026-04-17 00:19 | 48.66290 | 0.48342 | 31235 ft | 436 kts | 249° |
| 2026-04-17 00:19 | 48.64044 | 0.39811 | 31234 ft | 437 kts | 248° |
| 2026-04-17 00:20 | 48.61792 | 0.31284 | 31239 ft | 437 kts | 248° |
| 2026-04-17 00:20 | 48.59534 | 0.22764 | 31237 ft | 437 kts | 248° |
| 2026-04-17 00:21 | 48.57286 | 0.14316 | 31238 ft | 437 kts | 248° |
| 2026-04-17 00:21 | 48.55014 | 0.05808 | 31239 ft | 437 kts | 248° |
| 2026-04-17 00:22 | 48.51597 | -0.06931 | 31243 ft | 437 kts | 248° |
| 2026-04-17 00:22 | 48.49324 | -0.15365 | 31242 ft | 437 kts | 248° |
| 2026-04-17 00:23 | 48.47034 | -0.23836 | 31242 ft | 437 kts | 248° |
| 2026-04-17 00:23 | 48.44733 | -0.32311 | 31242 ft | 437 kts | 248° |
| 2026-04-17 00:24 | 48.42429 | -0.40770 | 31241 ft | 437 kts | 248° |
| 2026-04-17 00:24 | 48.40112 | -0.49241 | 31339 ft | 436 kts | 248° |
| 2026-04-17 00:25 | 48.38976 | -0.53387 | 31604 ft | 434 kts | 248° |
| 2026-04-17 00:25 | 48.37827 | -0.57572 | 31842 ft | 432 kts | 248° |
| 2026-04-17 00:25 | 48.36678 | -0.61749 | 32045 ft | 431 kts | 248° |
| 2026-04-17 00:25 | 48.35532 | -0.65906 | 32206 ft | 431 kts | 248° |
| 2026-04-17 00:26 | 48.33227 | -0.74251 | 32236 ft | 431 kts | 247° |
| 2026-04-17 00:26 | 48.30921 | -0.82565 | 32236 ft | 431 kts | 247° |
| 2026-04-17 00:27 | 48.28627 | -0.90811 | 32240 ft | 431 kts | 247° |
| 2026-04-17 00:27 | 48.26309 | -0.99110 | 32239 ft | 432 kts | 247° |
| 2026-04-17 00:28 | 48.23981 | -1.07417 | 32239 ft | 432 kts | 247° |
| 2026-04-17 00:28 | 48.21649 | -1.15713 | 32217 ft | 432 kts | 247° |
| 2026-04-17 00:29 | 48.19325 | -1.23951 | 32237 ft | 432 kts | 247° |
| 2026-04-17 00:29 | 48.16977 | -1.32246 | 32241 ft | 433 kts | 247° |
| 2026-04-17 00:30 | 48.14618 | -1.40548 | 32238 ft | 433 kts | 247° |
| 2026-04-17 00:30 | 48.12254 | -1.48842 | 32238 ft | 433 kts | 247° |
| 2026-04-17 00:31 | 48.09882 | -1.57131 | 32238 ft | 433 kts | 247° |
| 2026-04-17 00:31 | 48.07522 | -1.65353 | 32238 ft | 433 kts | 247° |
| 2026-04-17 00:32 | 48.05137 | -1.73633 | 32238 ft | 434 kts | 247° |
| 2026-04-17 00:32 | 48.02747 | -1.81906 | 32237 ft | 434 kts | 247° |
| 2026-04-17 00:33 | 48.00347 | -1.90182 | 32237 ft | 434 kts | 247° |
| 2026-04-17 00:33 | 47.97958 | -1.98392 | 32235 ft | 434 kts | 247° |
| 2026-04-17 00:34 | 47.95546 | -2.06651 | 32235 ft | 434 kts | 247° |
| 2026-04-17 00:34 | 47.93131 | -2.14896 | 32237 ft | 434 kts | 247° |
| 2026-04-17 00:35 | 47.90709 | -2.23133 | 32235 ft | 434 kts | 247° |
| 2026-04-17 00:35 | 47.88297 | -2.31315 | 32236 ft | 434 kts | 246° |
| 2026-04-17 00:36 | 47.85863 | -2.39539 | 32236 ft | 434 kts | 246° |
| 2026-04-17 00:36 | 47.83424 | -2.47753 | 32235 ft | 434 kts | 246° |
| 2026-04-17 00:37 | 47.81060 | -2.56009 | 32218 ft | 434 kts | 249° |
| 2026-04-17 00:37 | 47.78933 | -2.64333 | 32211 ft | 433 kts | 250° |
| 2026-04-17 00:38 | 47.76825 | -2.72726 | 32194 ft | 433 kts | 250° |
| 2026-04-17 00:38 | 47.74680 | -2.81108 | 32209 ft | 434 kts | 249° |
| 2026-04-17 00:39 | 47.72511 | -2.89468 | 32234 ft | 434 kts | 249° |
| 2026-04-17 00:39 | 47.70349 | -2.97752 | 32235 ft | 434 kts | 249° |
| 2026-04-17 00:40 | 47.68161 | -3.06105 | 32241 ft | 434 kts | 249° |
| 2026-04-17 00:40 | 47.65967 | -3.14459 | 32237 ft | 434 kts | 249° |
| 2026-04-17 00:41 | 47.63768 | -3.22798 | 32219 ft | 434 kts | 249° |
| 2026-04-17 00:41 | 47.61565 | -3.31129 | 32216 ft | 434 kts | 249° |
| 2026-04-17 00:42 | 47.59369 | -3.39400 | 32218 ft | 434 kts | 249° |
| 2026-04-17 00:42 | 47.57156 | -3.47707 | 32219 ft | 434 kts | 249° |
| 2026-04-17 00:43 | 47.54935 | -3.56013 | 32219 ft | 434 kts | 249° |
| 2026-04-17 00:43 | 47.52709 | -3.64308 | 32217 ft | 434 kts | 249° |
| 2026-04-17 00:44 | 47.50489 | -3.72552 | 32224 ft | 434 kts | 249° |
| 2026-04-17 00:44 | 47.48250 | -3.80838 | 32225 ft | 434 kts | 249° |
| 2026-04-17 00:45 | 47.46006 | -3.89113 | 32216 ft | 433 kts | 249° |
| 2026-04-17 00:45 | 47.43758 | -3.97375 | 32215 ft | 433 kts | 249° |
| 2026-04-17 00:46 | 47.41519 | -4.05574 | 32217 ft | 433 kts | 249° |
| 2026-04-17 00:46 | 47.39259 | -4.13820 | 32217 ft | 433 kts | 249° |
| 2026-04-17 00:47 | 47.36994 | -4.22057 | 32216 ft | 432 kts | 248° |
| 2026-04-17 00:47 | 47.34731 | -4.30257 | 32217 ft | 431 kts | 248° |
| 2026-04-17 00:48 | 47.32479 | -4.38393 | 32216 ft | 431 kts | 248° |
| 2026-04-17 00:48 | 47.30206 | -4.46574 | 32215 ft | 431 kts | 248° |
| 2026-04-17 00:49 | 47.27924 | -4.54758 | 32219 ft | 433 kts | 248° |
| 2026-04-17 00:49 | 47.25633 | -4.62950 | 32217 ft | 433 kts | 248° |
| 2026-04-17 00:50 | 47.23350 | -4.71085 | 32218 ft | 433 kts | 248° |
| 2026-04-17 00:50 | 47.21046 | -4.79263 | 32216 ft | 433 kts | 248° |
| 2026-04-17 00:51 | 47.18736 | -4.87437 | 32215 ft | 433 kts | 248° |
| 2026-04-17 00:51 | 47.16422 | -4.95600 | 32226 ft | 433 kts | 248° |
| 2026-04-17 00:52 | 47.14106 | -5.03739 | 32212 ft | 431 kts | 248° |
| 2026-04-17 00:52 | 47.11809 | -5.11786 | 32211 ft | 430 kts | 248° |
| 2026-04-17 00:53 | 47.09490 | -5.19884 | 32214 ft | 430 kts | 248° |
| 2026-04-17 00:53 | 47.07164 | -5.27977 | 32209 ft | 430 kts | 248° |
| 2026-04-17 00:54 | 47.04836 | -5.36054 | 32203 ft | 431 kts | 248° |
| 2026-04-17 00:54 | 47.02514 | -5.44079 | 32207 ft | 430 kts | 248° |
| 2026-04-17 00:55 | 47.00174 | -5.52143 | 32207 ft | 430 kts | 248° |
| 2026-04-17 00:55 | 46.97827 | -5.60204 | 32209 ft | 430 kts | 247° |
| 2026-04-17 00:56 | 46.95476 | -5.68251 | 32207 ft | 430 kts | 247° |
| 2026-04-17 00:56 | 46.93134 | -5.76242 | 32209 ft | 429 kts | 247° |
| 2026-04-17 00:57 | 46.90784 | -5.84231 | 32206 ft | 426 kts | 247° |
| 2026-04-17 00:57 | 46.88437 | -5.92188 | 32203 ft | 426 kts | 247° |
| 2026-04-17 00:58 | 46.86084 | -6.00139 | 32203 ft | 426 kts | 247° |
| 2026-04-17 00:58 | 46.83742 | -6.08029 | 32200 ft | 426 kts | 247° |
| 2026-04-17 00:59 | 46.81378 | -6.15964 | 32202 ft | 425 kts | 247° |
| 2026-04-17 00:59 | 46.79020 | -6.23856 | 32194 ft | 425 kts | 247° |
| 2026-04-17 01:00 | 46.76645 | -6.31780 | 32201 ft | 427 kts | 246° |
| 2026-04-17 01:00 | 46.74278 | -6.39652 | 32203 ft | 427 kts | 246° |
| 2026-04-17 01:01 | 46.71889 | -6.47572 | 32196 ft | 427 kts | 246° |
| 2026-04-17 01:01 | 46.69496 | -6.55477 | 32191 ft | 425 kts | 246° |
| 2026-04-17 01:02 | 46.67125 | -6.63288 | 32192 ft | 424 kts | 246° |
| 2026-04-17 01:02 | 46.64737 | -6.71129 | 32186 ft | 424 kts | 246° |
| 2026-04-17 01:03 | 46.62342 | -6.78973 | 32186 ft | 424 kts | 246° |
| 2026-04-17 01:03 | 46.59940 | -6.86809 | 32186 ft | 424 kts | 246° |
| 2026-04-17 01:04 | 46.57552 | -6.94579 | 32187 ft | 423 kts | 246° |
| 2026-04-17 01:04 | 46.55151 | -7.02366 | 32185 ft | 422 kts | 246° |
| 2026-04-17 01:05 | 46.52744 | -7.10149 | 32184 ft | 422 kts | 246° |
| 2026-04-17 01:05 | 46.50333 | -7.17921 | 32187 ft | 422 kts | 246° |
| 2026-04-17 01:06 | 46.47915 | -7.25690 | 32187 ft | 422 kts | 246° |
| 2026-04-17 01:06 | 46.45514 | -7.33386 | 32179 ft | 421 kts | 245° |
| 2026-04-17 01:07 | 46.43097 | -7.41105 | 32182 ft | 420 kts | 245° |
| 2026-04-17 01:07 | 46.40677 | -7.48811 | 32184 ft | 420 kts | 245° |
| 2026-04-17 01:08 | 46.38250 | -7.56515 | 32179 ft | 420 kts | 245° |
| 2026-04-17 01:08 | 46.35835 | -7.64159 | 32194 ft | 420 kts | 245° |
| 2026-04-17 01:09 | 46.33404 | -7.71831 | 32182 ft | 419 kts | 245° |
| 2026-04-17 01:09 | 46.30971 | -7.79489 | 32183 ft | 419 kts | 245° |
| 2026-04-17 01:10 | 46.28530 | -7.87143 | 32180 ft | 421 kts | 245° |
| 2026-04-17 01:10 | 46.26071 | -7.94834 | 32345 ft | 420 kts | 245° |
| 2026-04-17 01:11 | 46.24863 | -7.98604 | 32601 ft | 418 kts | 245° |
| 2026-04-17 01:11 | 46.23644 | -8.02405 | 32838 ft | 416 kts | 245° |
| 2026-04-17 01:11 | 46.22429 | -8.06184 | 33102 ft | 414 kts | 245° |
| 2026-04-17 01:11 | 46.21215 | -8.09957 | 33175 ft | 415 kts | 245° |
| 2026-04-17 01:12 | 46.18780 | -8.17506 | 33179 ft | 414 kts | 245° |
| 2026-04-17 01:12 | 46.16345 | -8.25032 | 33178 ft | 414 kts | 245° |
| 2026-04-17 01:13 | 46.13923 | -8.32498 | 33173 ft | 414 kts | 245° |
| 2026-04-17 01:13 | 46.11478 | -8.40010 | 33173 ft | 414 kts | 245° |
| 2026-04-17 01:14 | 46.09029 | -8.47516 | 33176 ft | 414 kts | 244° |
| 2026-04-17 01:14 | 46.06593 | -8.54958 | 33175 ft | 414 kts | 244° |
| 2026-04-17 01:15 | 46.04134 | -8.62451 | 33150 ft | 414 kts | 245° |
| 2026-04-17 01:15 | 46.01664 | -8.69954 | 33172 ft | 416 kts | 244° |
| 2026-04-17 01:16 | 45.98979 | -8.77313 | 33168 ft | 415 kts | 239° |
| 2026-04-17 01:16 | 45.96015 | -8.84370 | 33170 ft | 415 kts | 239° |
| 2026-04-17 01:17 | 45.92983 | -8.91423 | 33170 ft | 415 kts | 238° |
| 2026-04-17 01:17 | 45.89942 | -8.98467 | 33170 ft | 415 kts | 238° |
| 2026-04-17 01:18 | 45.86902 | -9.05509 | 33170 ft | 415 kts | 238° |
| 2026-04-17 01:18 | 45.83883 | -9.12494 | 33170 ft | 414 kts | 238° |
| 2026-04-17 01:19 | 45.80850 | -9.19497 | 33165 ft | 413 kts | 238° |
| 2026-04-17 01:19 | 45.77816 | -9.26483 | 33173 ft | 414 kts | 238° |
| 2026-04-17 01:20 | 45.74757 | -9.33509 | 33166 ft | 416 kts | 238° |
| 2026-04-17 01:20 | 45.71714 | -9.40482 | 33165 ft | 416 kts | 238° |
| 2026-04-17 01:21 | 45.68645 | -9.47495 | 33165 ft | 415 kts | 238° |
| 2026-04-17 01:21 | 45.65588 | -9.54465 | 33165 ft | 413 kts | 238° |
| 2026-04-17 01:22 | 45.62531 | -9.61417 | 33165 ft | 413 kts | 238° |
| 2026-04-17 01:22 | 45.59488 | -9.68319 | 33167 ft | 413 kts | 238° |
| 2026-04-17 01:23 | 45.56422 | -9.75260 | 33165 ft | 413 kts | 238° |
| 2026-04-17 01:23 | 45.53350 | -9.82193 | 33165 ft | 414 kts | 238° |
| 2026-04-17 01:24 | 45.50269 | -9.89132 | 33162 ft | 414 kts | 238° |
| 2026-04-17 01:24 | 45.47203 | -9.96019 | 33165 ft | 414 kts | 238° |
| 2026-04-17 01:25 | 45.44113 | -10.02944 | 33164 ft | 414 kts | 238° |
| 2026-04-17 01:25 | 45.41017 | -10.09864 | 33165 ft | 414 kts | 238° |
| 2026-04-17 01:26 | 45.37920 | -10.16771 | 33164 ft | 413 kts | 237° |
| 2026-04-17 01:26 | 45.34835 | -10.23634 | 33165 ft | 411 kts | 237° |
| 2026-04-17 01:27 | 45.31773 | -10.30430 | 33160 ft | 411 kts | 237° |
| 2026-04-17 01:27 | 45.28678 | -10.37279 | 33166 ft | 413 kts | 237° |
| 2026-04-17 01:28 | 45.25557 | -10.44173 | 33159 ft | 416 kts | 237° |
| 2026-04-17 01:28 | 45.22427 | -10.51068 | 33159 ft | 414 kts | 237° |
| 2026-04-17 01:29 | 45.17765 | -10.61309 | 33162 ft | 414 kts | 237° |
| 2026-04-17 01:30 | 45.14638 | -10.68158 | 33158 ft | 414 kts | 237° |
| 2026-04-17 01:30 | 45.11509 | -10.74993 | 33160 ft | 414 kts | 237° |
| 2026-04-17 01:31 | 45.08377 | -10.81819 | 33168 ft | 413 kts | 237° |
| 2026-04-17 01:31 | 45.05277 | -10.88558 | 33146 ft | 410 kts | 237° |
| 2026-04-17 01:32 | 45.02141 | -10.95360 | 33156 ft | 415 kts | 237° |
| 2026-04-17 01:32 | 44.98984 | -11.02183 | 33159 ft | 415 kts | 236° |
| 2026-04-17 01:33 | 44.95737 | -11.08922 | 33159 ft | 415 kts | 235° |
| 2026-04-17 01:33 | 44.92479 | -11.15572 | 33160 ft | 414 kts | 235° |
| 2026-04-17 01:34 | 44.89205 | -11.22268 | 33279 ft | 416 kts | 235° |
| 2026-04-17 01:34 | 44.86473 | -11.27871 | 33342 ft | 419 kts | 236° |
| 2026-04-17 01:35 | 44.83153 | -11.34672 | 33512 ft | 422 kts | 236° |
| 2026-04-17 01:35 | 44.81488 | -11.38080 | 33643 ft | 422 kts | 236° |
| 2026-04-17 01:35 | 44.79275 | -11.42600 | 33659 ft | 425 kts | 235° |
| 2026-04-17 01:35 | 44.77595 | -11.46026 | 33780 ft | 426 kts | 235° |
| 2026-04-17 01:36 | 44.75917 | -11.49444 | 34064 ft | 422 kts | 235° |
| 2026-04-17 01:36 | 44.73136 | -11.55100 | 34153 ft | 425 kts | 235° |
| 2026-04-17 01:37 | 44.69751 | -11.61970 | 34160 ft | 430 kts | 235° |
| 2026-04-17 01:37 | 44.65757 | -11.70052 | 34159 ft | 436 kts | 235° |
| 2026-04-17 01:38 | 44.62841 | -11.75941 | 34155 ft | 440 kts | 235° |
| 2026-04-17 01:38 | 44.59366 | -11.82940 | 34157 ft | 440 kts | 235° |
| 2026-04-17 01:39 | 44.55869 | -11.89969 | 34149 ft | 439 kts | 235° |
| 2026-04-17 01:39 | 44.51776 | -11.98172 | 34162 ft | 444 kts | 235° |
| 2026-04-17 01:40 | 44.48807 | -12.04110 | 34157 ft | 444 kts | 235° |
| 2026-04-17 01:40 | 44.45290 | -12.11125 | 34163 ft | 441 kts | 235° |
| 2026-04-17 01:41 | 44.41765 | -12.18141 | 34161 ft | 440 kts | 235° |
| 2026-04-17 01:41 | 44.38243 | -12.25134 | 34158 ft | 439 kts | 235° |
| 2026-04-17 01:42 | 44.34720 | -12.32110 | 34157 ft | 439 kts | 235° |
| 2026-04-17 01:42 | 44.31216 | -12.39034 | 34151 ft | 440 kts | 235° |
| 2026-04-17 01:43 | 44.27670 | -12.46025 | 34155 ft | 441 kts | 234° |
| 2026-04-17 01:43 | 44.24118 | -12.53008 | 34158 ft | 441 kts | 234° |
| 2026-04-17 01:44 | 44.20568 | -12.59973 | 34159 ft | 441 kts | 234° |
| 2026-04-17 01:44 | 44.17037 | -12.66882 | 34149 ft | 441 kts | 234° |
| 2026-04-17 01:45 | 44.13478 | -12.73831 | 34147 ft | 441 kts | 234° |
| 2026-04-17 01:45 | 44.09923 | -12.80755 | 34163 ft | 438 kts | 234° |
| 2026-04-17 01:46 | 44.06403 | -12.87595 | 34159 ft | 437 kts | 234° |
| 2026-04-17 01:46 | 44.02863 | -12.94457 | 34157 ft | 436 kts | 234° |
| 2026-04-17 01:47 | 43.99503 | -13.01474 | 34160 ft | 436 kts | 240° |
| 2026-04-17 01:47 | 43.96598 | -13.08876 | 34156 ft | 437 kts | 241° |
| 2026-04-17 01:48 | 43.93767 | -13.16338 | 34155 ft | 436 kts | 241° |
| 2026-04-17 01:48 | 43.90967 | -13.23727 | 34157 ft | 435 kts | 241° |
| 2026-04-17 01:49 | 43.88140 | -13.31139 | 34156 ft | 435 kts | 241° |
| 2026-04-17 01:49 | 43.85304 | -13.38535 | 34154 ft | 435 kts | 241° |
| 2026-04-17 01:50 | 43.82460 | -13.45929 | 34152 ft | 435 kts | 241° |
| 2026-04-17 01:50 | 43.79612 | -13.53315 | 34154 ft | 436 kts | 240° |
| 2026-04-17 01:51 | 43.76771 | -13.60665 | 34154 ft | 436 kts | 240° |
| 2026-04-17 01:51 | 43.73907 | -13.68045 | 34151 ft | 436 kts | 240° |
| 2026-04-17 01:52 | 43.71041 | -13.75428 | 34151 ft | 436 kts | 240° |
| 2026-04-17 01:52 | 43.68169 | -13.82803 | 34154 ft | 436 kts | 240° |
| 2026-04-17 01:53 | 43.65316 | -13.90110 | 34159 ft | 434 kts | 240° |
| 2026-04-17 01:53 | 43.62450 | -13.97430 | 34151 ft | 433 kts | 240° |
| 2026-04-17 01:54 | 43.59583 | -14.04732 | 34158 ft | 433 kts | 240° |
| 2026-04-17 01:54 | 43.56708 | -14.12034 | 34156 ft | 433 kts | 240° |
| 2026-04-17 01:55 | 43.53853 | -14.19269 | 34148 ft | 433 kts | 240° |
| 2026-04-17 01:55 | 43.50967 | -14.26551 | 34144 ft | 433 kts | 240° |
| 2026-04-17 01:56 | 43.48068 | -14.33835 | 34139 ft | 434 kts | 240° |
| 2026-04-17 01:56 | 43.45162 | -14.41104 | 34138 ft | 433 kts | 240° |
| 2026-04-17 01:57 | 43.42268 | -14.48314 | 34140 ft | 433 kts | 239° |
| 2026-04-17 01:57 | 43.39343 | -14.55562 | 34137 ft | 433 kts | 239° |
| 2026-04-17 01:58 | 43.36412 | -14.62793 | 34142 ft | 432 kts | 239° |
| 2026-04-17 01:58 | 43.33480 | -14.69989 | 34135 ft | 431 kts | 239° |
| 2026-04-17 01:59 | 43.30558 | -14.77121 | 34115 ft | 431 kts | 239° |
| 2026-04-17 01:59 | 43.27602 | -14.84291 | 34109 ft | 431 kts | 239° |
| 2026-04-17 02:00 | 43.24636 | -14.91442 | 34102 ft | 431 kts | 239° |
| 2026-04-17 02:00 | 43.21651 | -14.98588 | 34096 ft | 432 kts | 238° |
| 2026-04-17 02:01 | 43.18673 | -15.05666 | 34091 ft | 431 kts | 238° |
| 2026-04-17 02:01 | 43.15659 | -15.12772 | 34087 ft | 432 kts | 238° |
| 2026-04-17 02:02 | 43.12624 | -15.19867 | 34077 ft | 432 kts | 238° |
| 2026-04-17 02:02 | 43.09574 | -15.26937 | 34057 ft | 431 kts | 238° |
| 2026-04-17 02:03 | 43.06524 | -15.33940 | 34045 ft | 431 kts | 238° |
| 2026-04-17 02:03 | 43.03431 | -15.40970 | 34029 ft | 431 kts | 237° |
| 2026-04-17 02:04 | 43.00313 | -15.47985 | 34024 ft | 433 kts | 237° |
| 2026-04-17 02:04 | 42.97167 | -15.54987 | 34004 ft | 430 kts | 237° |
| 2026-04-17 02:04 | 42.95615 | -15.58415 | 33954 ft | 419 kts | 237° |
| 2026-04-17 02:05 | 42.94080 | -15.61785 | 33949 ft | 419 kts | 237° |
| 2026-04-17 02:05 | 42.90981 | -15.68525 | 33963 ft | 425 kts | 236° |
| 2026-04-17 02:06 | 42.87849 | -15.75252 | 33918 ft | 409 kts | 236° |
| 2026-04-17 02:06 | 42.86336 | -15.78474 | 33880 ft | 398 kts | 236° |
| 2026-04-17 02:06 | 42.84878 | -15.81651 | 33860 ft | 395 kts | 241° |
| 2026-04-17 02:06 | 42.83923 | -15.85182 | 33920 ft | 400 kts | 252° |
| 2026-04-17 02:07 | 42.83205 | -15.88850 | 33933 ft | 402 kts | 249° |
| 2026-04-17 02:07 | 42.80993 | -15.95786 | 33935 ft | 404 kts | 240° |
| 2026-04-17 02:08 | 42.78242 | -16.02522 | 33934 ft | 410 kts | 238° |
| 2026-04-17 02:08 | 42.75354 | -16.09278 | 33932 ft | 416 kts | 238° |
| 2026-04-17 02:09 | 42.72432 | -16.16142 | 33932 ft | 422 kts | 238° |
| 2026-04-17 02:09 | 42.69508 | -16.23061 | 33929 ft | 428 kts | 238° |
| 2026-04-17 02:10 | 42.66533 | -16.30110 | 33930 ft | 430 kts | 238° |
| 2026-04-17 02:10 | 42.63553 | -16.37155 | 33937 ft | 430 kts | 238° |
| 2026-04-17 02:11 | 42.60570 | -16.44188 | 33934 ft | 429 kts | 238° |
| 2026-04-17 02:11 | 42.57606 | -16.51157 | 33934 ft | 429 kts | 238° |
| 2026-04-17 02:12 | 42.54618 | -16.58164 | 33931 ft | 429 kts | 238° |
| 2026-04-17 02:12 | 42.51624 | -16.65169 | 33931 ft | 429 kts | 238° |
| 2026-04-17 02:13 | 42.48630 | -16.72159 | 33937 ft | 428 kts | 238° |
| 2026-04-17 02:13 | 42.45658 | -16.79078 | 33931 ft | 427 kts | 238° |
| 2026-04-17 02:14 | 42.42670 | -16.86019 | 33931 ft | 427 kts | 238° |
| 2026-04-17 02:14 | 42.39675 | -16.92959 | 33931 ft | 427 kts | 238° |
| 2026-04-17 02:15 | 42.36680 | -16.99885 | 33928 ft | 427 kts | 238° |
| 2026-04-17 02:15 | 42.33698 | -17.06763 | 33933 ft | 427 kts | 238° |
| 2026-04-17 02:16 | 42.30687 | -17.13693 | 33928 ft | 428 kts | 238° |
| 2026-04-17 02:16 | 42.27673 | -17.20615 | 33928 ft | 428 kts | 238° |
| 2026-04-17 02:17 | 42.24655 | -17.27529 | 33931 ft | 428 kts | 238° |
| 2026-04-17 02:17 | 42.21651 | -17.34395 | 33925 ft | 427 kts | 238° |
| 2026-04-17 02:18 | 42.18625 | -17.41295 | 33933 ft | 427 kts | 238° |
| 2026-04-17 02:18 | 42.15600 | -17.48176 | 33928 ft | 426 kts | 238° |
| 2026-04-17 02:19 | 42.12577 | -17.55036 | 33929 ft | 426 kts | 237° |
| 2026-04-17 02:19 | 42.09573 | -17.61839 | 33925 ft | 426 kts | 237° |
| 2026-04-17 02:20 | 42.06543 | -17.68684 | 33927 ft | 426 kts | 237° |
| 2026-04-17 02:20 | 42.03510 | -17.75521 | 33913 ft | 425 kts | 237° |
| 2026-04-17 02:21 | 42.00467 | -17.82363 | 33930 ft | 426 kts | 237° |
| 2026-04-17 02:21 | 41.97440 | -17.89154 | 33922 ft | 426 kts | 237° |
| 2026-04-17 02:22 | 41.94388 | -17.95988 | 33922 ft | 426 kts | 237° |
| 2026-04-17 02:22 | 41.91331 | -18.02815 | 33922 ft | 426 kts | 237° |
| 2026-04-17 02:23 | 41.88272 | -18.09631 | 33931 ft | 426 kts | 237° |
| 2026-04-17 02:23 | 41.85231 | -18.16393 | 33922 ft | 425 kts | 237° |
| 2026-04-17 02:24 | 41.82173 | -18.23179 | 33924 ft | 425 kts | 237° |
| 2026-04-17 02:24 | 41.79112 | -18.29955 | 33918 ft | 425 kts | 237° |
| 2026-04-17 02:25 | 41.76046 | -18.36726 | 33920 ft | 425 kts | 237° |
| 2026-04-17 02:25 | 41.72998 | -18.43442 | 33925 ft | 425 kts | 237° |
| 2026-04-17 02:26 | 41.69923 | -18.50200 | 33923 ft | 426 kts | 237° |
| 2026-04-17 02:26 | 41.66834 | -18.56975 | 33922 ft | 426 kts | 237° |
| 2026-04-17 02:27 | 41.63744 | -18.63739 | 33927 ft | 426 kts | 237° |
| 2026-04-17 02:27 | 41.60670 | -18.70451 | 33925 ft | 426 kts | 237° |
| 2026-04-17 02:28 | 41.57572 | -18.77202 | 33922 ft | 426 kts | 237° |
| 2026-04-17 02:28 | 41.54468 | -18.83952 | 33922 ft | 426 kts | 237° |
| 2026-04-17 02:29 | 41.51361 | -18.90691 | 33922 ft | 426 kts | 237° |
| 2026-04-17 02:29 | 41.48270 | -18.97381 | 33922 ft | 426 kts | 237° |
| 2026-04-17 02:30 | 41.45156 | -19.04107 | 33922 ft | 426 kts | 237° |
| 2026-04-17 02:30 | 41.42036 | -19.10829 | 33922 ft | 426 kts | 237° |
| 2026-04-17 02:31 | 41.38919 | -19.17532 | 33908 ft | 426 kts | 237° |
| 2026-04-17 02:31 | 41.35809 | -19.24202 | 33925 ft | 427 kts | 237° |
| 2026-04-17 02:32 | 41.32669 | -19.30924 | 33920 ft | 428 kts | 237° |
| 2026-04-17 02:32 | 41.29525 | -19.37640 | 33920 ft | 427 kts | 237° |
| 2026-04-17 02:33 | 41.26381 | -19.44340 | 33920 ft | 427 kts | 237° |
| 2026-04-17 02:33 | 41.23252 | -19.50994 | 33917 ft | 427 kts | 237° |
| 2026-04-17 02:34 | 41.20108 | -19.57667 | 33917 ft | 426 kts | 237° |
| 2026-04-17 02:34 | 41.16959 | -19.64333 | 33914 ft | 426 kts | 237° |
| 2026-04-17 02:35 | 41.13809 | -19.70990 | 33918 ft | 426 kts | 237° |
| 2026-04-17 02:35 | 41.09074 | -19.80966 | 33925 ft | 426 kts | 237° |
| 2026-04-17 02:36 | 41.05937 | -19.87558 | 33917 ft | 425 kts | 237° |
| 2026-04-17 02:36 | 41.02777 | -19.94183 | 33917 ft | 425 kts | 237° |
| 2026-04-17 02:37 | 40.99770 | -20.00920 | 33924 ft | 426 kts | 243° |
| 2026-04-17 02:37 | 40.97265 | -20.08031 | 33917 ft | 427 kts | 244° |
| 2026-04-17 02:38 | 40.94863 | -20.15151 | 33921 ft | 427 kts | 244° |
| 2026-04-17 02:38 | 40.92454 | -20.22321 | 33914 ft | 427 kts | 244° |
| 2026-04-17 02:39 | 40.90031 | -20.29483 | 33917 ft | 427 kts | 244° |
| 2026-04-17 02:39 | 40.87599 | -20.36635 | 33914 ft | 427 kts | 244° |
| 2026-04-17 02:40 | 40.85176 | -20.43733 | 33912 ft | 427 kts | 244° |
| 2026-04-17 02:40 | 40.82734 | -20.50871 | 33920 ft | 426 kts | 244° |
| 2026-04-17 02:41 | 40.80290 | -20.57999 | 33916 ft | 426 kts | 244° |
| 2026-04-17 02:41 | 40.77842 | -20.65120 | 33913 ft | 426 kts | 244° |
| 2026-04-17 02:42 | 40.75390 | -20.72236 | 33914 ft | 426 kts | 244° |
| 2026-04-17 02:42 | 40.72949 | -20.79300 | 33915 ft | 426 kts | 244° |
| 2026-04-17 02:43 | 40.70487 | -20.86408 | 33912 ft | 426 kts | 244° |
| 2026-04-17 02:43 | 40.68020 | -20.93513 | 33914 ft | 427 kts | 244° |
| 2026-04-17 02:44 | 40.65547 | -21.00617 | 33903 ft | 426 kts | 244° |
| 2026-04-17 02:44 | 40.63084 | -21.07674 | 33918 ft | 427 kts | 244° |
| 2026-04-17 02:45 | 40.60598 | -21.14781 | 33926 ft | 427 kts | 244° |
| 2026-04-17 02:45 | 40.58108 | -21.21880 | 33915 ft | 428 kts | 244° |
| 2026-04-17 02:46 | 40.55610 | -21.28984 | 33914 ft | 428 kts | 244° |
| 2026-04-17 02:46 | 40.53127 | -21.36030 | 33914 ft | 428 kts | 244° |
| 2026-04-17 02:47 | 40.50621 | -21.43123 | 33915 ft | 428 kts | 244° |
| 2026-04-17 02:47 | 40.48112 | -21.50205 | 33917 ft | 428 kts | 244° |
| 2026-04-17 02:48 | 40.45593 | -21.57299 | 33901 ft | 429 kts | 244° |
| 2026-04-17 02:48 | 40.43085 | -21.64343 | 33914 ft | 429 kts | 244° |
| 2026-04-17 02:49 | 40.40557 | -21.71430 | 33919 ft | 429 kts | 244° |
| 2026-04-17 02:49 | 40.38022 | -21.78515 | 33918 ft | 429 kts | 243° |
| 2026-04-17 02:50 | 40.35483 | -21.85597 | 33906 ft | 429 kts | 243° |
| 2026-04-17 02:50 | 40.32939 | -21.92672 | 33908 ft | 429 kts | 243° |
| 2026-04-17 02:51 | 40.30408 | -21.99696 | 33908 ft | 429 kts | 243° |
| 2026-04-17 02:51 | 40.27855 | -22.06763 | 33904 ft | 429 kts | 243° |
| 2026-04-17 02:52 | 40.25300 | -22.13818 | 33915 ft | 429 kts | 243° |
| 2026-04-17 02:52 | 40.22740 | -22.20871 | 33912 ft | 429 kts | 243° |
| 2026-04-17 02:53 | 40.20193 | -22.27870 | 33903 ft | 429 kts | 243° |
| 2026-04-17 02:53 | 40.17621 | -22.34922 | 33913 ft | 430 kts | 243° |
| 2026-04-17 02:54 | 40.15042 | -22.41975 | 33911 ft | 430 kts | 243° |
| 2026-04-17 02:54 | 40.12460 | -22.49021 | 33913 ft | 430 kts | 243° |
| 2026-04-17 02:55 | 40.09886 | -22.56026 | 33910 ft | 430 kts | 243° |
| 2026-04-17 02:55 | 40.07295 | -22.63062 | 33909 ft | 430 kts | 243° |
| 2026-04-17 02:56 | 40.04696 | -22.70101 | 33911 ft | 430 kts | 243° |
| 2026-04-17 02:56 | 40.02094 | -22.77132 | 33912 ft | 430 kts | 243° |
| 2026-04-17 02:57 | 39.99506 | -22.84110 | 33915 ft | 430 kts | 243° |
| 2026-04-17 02:57 | 39.96895 | -22.91131 | 33914 ft | 430 kts | 243° |
| 2026-04-17 02:58 | 39.94279 | -22.98149 | 33892 ft | 430 kts | 243° |
| 2026-04-17 02:58 | 39.91660 | -23.05159 | 33911 ft | 430 kts | 243° |
| 2026-04-17 02:59 | 39.89054 | -23.12118 | 33908 ft | 430 kts | 243° |
| 2026-04-17 02:59 | 39.86430 | -23.19107 | 33910 ft | 429 kts | 243° |
| 2026-04-17 03:00 | 39.83803 | -23.26086 | 33908 ft | 429 kts | 243° |
| 2026-04-17 03:00 | 39.81176 | -23.33052 | 33908 ft | 429 kts | 243° |
| 2026-04-17 03:01 | 39.78562 | -23.39970 | 33909 ft | 429 kts | 243° |
| 2026-04-17 03:01 | 39.75926 | -23.46925 | 33906 ft | 428 kts | 243° |
| 2026-04-17 03:02 | 39.73294 | -23.53856 | 33885 ft | 427 kts | 243° |
| 2026-04-17 03:02 | 39.70654 | -23.60788 | 33910 ft | 429 kts | 243° |
| 2026-04-17 03:03 | 39.68022 | -23.67687 | 33907 ft | 429 kts | 243° |
| 2026-04-17 03:03 | 39.65370 | -23.74623 | 33908 ft | 429 kts | 243° |
| 2026-04-17 03:04 | 39.62711 | -23.81558 | 33909 ft | 429 kts | 243° |
| 2026-04-17 03:04 | 39.60049 | -23.88486 | 33912 ft | 429 kts | 243° |
| 2026-04-17 03:05 | 39.57399 | -23.95367 | 33911 ft | 430 kts | 243° |
| 2026-04-17 03:05 | 39.54725 | -24.02295 | 33909 ft | 430 kts | 243° |
| 2026-04-17 03:06 | 39.52047 | -24.09215 | 33909 ft | 430 kts | 243° |
| 2026-04-17 03:06 | 39.49362 | -24.16138 | 33911 ft | 430 kts | 243° |
| 2026-04-17 03:07 | 39.46690 | -24.23014 | 33914 ft | 431 kts | 243° |
| 2026-04-17 03:07 | 39.43994 | -24.29935 | 33913 ft | 431 kts | 243° |
| 2026-04-17 03:08 | 39.41293 | -24.36851 | 33915 ft | 431 kts | 243° |
| 2026-04-17 03:08 | 39.38586 | -24.43768 | 33909 ft | 431 kts | 244° |
| 2026-04-17 03:09 | 39.35890 | -24.50641 | 33910 ft | 432 kts | 244° |
| 2026-04-17 03:09 | 39.33170 | -24.57559 | 33910 ft | 432 kts | 244° |
| 2026-04-17 03:10 | 39.30446 | -24.64474 | 33906 ft | 432 kts | 243° |
| 2026-04-17 03:10 | 39.27715 | -24.71386 | 33908 ft | 432 kts | 244° |
| 2026-04-17 03:11 | 39.24978 | -24.78301 | 33896 ft | 433 kts | 244° |
| 2026-04-17 03:11 | 39.22246 | -24.85188 | 33906 ft | 435 kts | 244° |
| 2026-04-17 03:12 | 39.19481 | -24.92141 | 33904 ft | 435 kts | 244° |
| 2026-04-17 03:12 | 39.16718 | -24.99075 | 33904 ft | 435 kts | 244° |
| 2026-04-17 03:13 | 39.13965 | -25.05964 | 33904 ft | 436 kts | 244° |
| 2026-04-17 03:13 | 39.11177 | -25.12929 | 33903 ft | 438 kts | 244° |
| 2026-04-17 03:14 | 39.08380 | -25.19900 | 33901 ft | 438 kts | 244° |
| 2026-04-17 03:14 | 39.05580 | -25.26862 | 33901 ft | 438 kts | 244° |
| 2026-04-17 03:15 | 39.02774 | -25.33821 | 33904 ft | 438 kts | 244° |
| 2026-04-17 03:15 | 38.99985 | -25.40724 | 33903 ft | 438 kts | 244° |
| 2026-04-17 03:16 | 38.97171 | -25.47674 | 33901 ft | 438 kts | 244° |
| 2026-04-17 03:16 | 38.94353 | -25.54617 | 33898 ft | 438 kts | 244° |
| 2026-04-17 03:17 | 38.91551 | -25.61505 | 33898 ft | 438 kts | 244° |
| 2026-04-17 03:17 | 38.88722 | -25.68442 | 33899 ft | 440 kts | 244° |
| 2026-04-17 03:18 | 38.85878 | -25.75403 | 33898 ft | 441 kts | 244° |
| 2026-04-17 03:18 | 38.83026 | -25.82370 | 33898 ft | 441 kts | 244° |
| 2026-04-17 03:19 | 38.80190 | -25.89278 | 33895 ft | 441 kts | 244° |
| 2026-04-17 03:19 | 38.77328 | -25.96235 | 33892 ft | 441 kts | 244° |
| 2026-04-17 03:20 | 38.74458 | -26.03196 | 33898 ft | 443 kts | 244° |
| 2026-04-17 03:20 | 38.71572 | -26.10183 | 33898 ft | 444 kts | 244° |
| 2026-04-17 03:21 | 38.68682 | -26.17159 | 33895 ft | 444 kts | 244° |
| 2026-04-17 03:21 | 38.65806 | -26.24089 | 33895 ft | 444 kts | 244° |
| 2026-04-17 03:22 | 38.62904 | -26.31063 | 33892 ft | 444 kts | 244° |
| 2026-04-17 03:22 | 38.59996 | -26.38039 | 33893 ft | 444 kts | 244° |
| 2026-04-17 03:23 | 38.57085 | -26.45007 | 33892 ft | 444 kts | 244° |
| 2026-04-17 03:23 | 38.54188 | -26.51924 | 33892 ft | 444 kts | 244° |
| 2026-04-17 03:24 | 38.51268 | -26.58880 | 33890 ft | 444 kts | 244° |
| 2026-04-17 03:24 | 38.48346 | -26.65827 | 33893 ft | 444 kts | 244° |
| 2026-04-17 03:25 | 38.45422 | -26.72763 | 33892 ft | 444 kts | 244° |
| 2026-04-17 03:25 | 38.42513 | -26.79649 | 33893 ft | 444 kts | 244° |
| 2026-04-17 03:26 | 38.39581 | -26.86572 | 33892 ft | 444 kts | 244° |
| 2026-04-17 03:26 | 38.36651 | -26.93477 | 33893 ft | 442 kts | 244° |
| 2026-04-17 03:27 | 38.33721 | -27.00364 | 33890 ft | 442 kts | 244° |
| 2026-04-17 03:27 | 38.30788 | -27.07246 | 33890 ft | 442 kts | 244° |
| 2026-04-17 03:28 | 38.27871 | -27.14076 | 33892 ft | 442 kts | 244° |
| 2026-04-17 03:28 | 38.24930 | -27.20948 | 33891 ft | 442 kts | 244° |
| 2026-04-17 03:29 | 38.21984 | -27.27813 | 33890 ft | 442 kts | 244° |
| 2026-04-17 03:29 | 38.19035 | -27.34673 | 33891 ft | 442 kts | 244° |
| 2026-04-17 03:30 | 38.16105 | -27.41475 | 33896 ft | 442 kts | 244° |
| 2026-04-17 03:30 | 38.13150 | -27.48317 | 33900 ft | 442 kts | 244° |
| 2026-04-17 03:31 | 38.10192 | -27.55154 | 33887 ft | 442 kts | 244° |
| 2026-04-17 03:31 | 38.07230 | -27.61983 | 33908 ft | 442 kts | 244° |
| 2026-04-17 03:32 | 38.04264 | -27.68809 | 33883 ft | 442 kts | 244° |
| 2026-04-17 03:32 | 38.01316 | -27.75579 | 33902 ft | 442 kts | 244° |
| 2026-04-17 03:33 | 37.98341 | -27.82394 | 33896 ft | 442 kts | 244° |
| 2026-04-17 03:33 | 37.95365 | -27.89200 | 33896 ft | 442 kts | 244° |
| 2026-04-17 03:34 | 37.92384 | -27.96001 | 33894 ft | 441 kts | 244° |
| 2026-04-17 03:34 | 37.89421 | -28.02746 | 33894 ft | 441 kts | 244° |
| 2026-04-17 03:35 | 37.86433 | -28.09535 | 33889 ft | 441 kts | 244° |
| 2026-04-17 03:35 | 37.83444 | -28.16312 | 33896 ft | 441 kts | 244° |
| 2026-04-17 03:36 | 37.78956 | -28.26460 | 33897 ft | 441 kts | 244° |
| 2026-04-17 03:37 | 37.75980 | -28.33172 | 33869 ft | 441 kts | 244° |
| 2026-04-17 03:37 | 37.72971 | -28.39946 | 33897 ft | 443 kts | 244° |
| 2026-04-17 03:38 | 37.69949 | -28.46734 | 33899 ft | 444 kts | 244° |
| 2026-04-17 03:38 | 37.66919 | -28.53524 | 33899 ft | 444 kts | 244° |
| 2026-04-17 03:39 | 37.63907 | -28.60258 | 33897 ft | 444 kts | 244° |
| 2026-04-17 03:39 | 37.60869 | -28.67039 | 33900 ft | 444 kts | 244° |
| 2026-04-17 03:40 | 37.57828 | -28.73811 | 33902 ft | 444 kts | 244° |
| 2026-04-17 03:40 | 37.54782 | -28.80581 | 33904 ft | 444 kts | 244° |
| 2026-04-17 03:41 | 37.51751 | -28.87304 | 33902 ft | 444 kts | 244° |
| 2026-04-17 03:41 | 37.48696 | -28.94064 | 33907 ft | 444 kts | 244° |
| 2026-04-17 03:42 | 37.45636 | -29.00824 | 33906 ft | 446 kts | 244° |
| 2026-04-17 03:42 | 37.42558 | -29.07610 | 33906 ft | 447 kts | 244° |
| 2026-04-17 03:43 | 37.39493 | -29.14350 | 33909 ft | 447 kts | 244° |
| 2026-04-17 03:43 | 37.36405 | -29.21128 | 33909 ft | 447 kts | 244° |
| 2026-04-17 03:44 | 37.33312 | -29.27902 | 33909 ft | 448 kts | 244° |
| 2026-04-17 03:44 | 37.30203 | -29.34700 | 33908 ft | 449 kts | 244° |
| 2026-04-17 03:45 | 37.27105 | -29.41457 | 33911 ft | 449 kts | 244° |
| 2026-04-17 03:45 | 37.23982 | -29.48253 | 33909 ft | 449 kts | 244° |
| 2026-04-17 03:46 | 37.20853 | -29.55052 | 33905 ft | 450 kts | 244° |
| 2026-04-17 03:46 | 37.17706 | -29.61876 | 33913 ft | 453 kts | 244° |
| 2026-04-17 03:47 | 37.14543 | -29.68718 | 33913 ft | 454 kts | 244° |
| 2026-04-17 03:47 | 37.11397 | -29.75509 | 33915 ft | 454 kts | 244° |
| 2026-04-17 03:48 | 37.08225 | -29.82342 | 33918 ft | 454 kts | 244° |
| 2026-04-17 03:48 | 37.05045 | -29.89180 | 33915 ft | 456 kts | 244° |
| 2026-04-17 03:49 | 37.01843 | -29.96051 | 33919 ft | 457 kts | 244° |
| 2026-04-17 03:49 | 36.99261 | -30.03169 | 33920 ft | 450 kts | 255° |
| 2026-04-17 03:50 | 36.97310 | -30.10600 | 33917 ft | 450 kts | 256° |
| 2026-04-17 03:50 | 36.95463 | -30.18081 | 33923 ft | 451 kts | 257° |
| 2026-04-17 03:51 | 36.93612 | -30.25574 | 33922 ft | 452 kts | 256° |
| 2026-04-17 03:51 | 36.91751 | -30.33015 | 33924 ft | 452 kts | 256° |
| 2026-04-17 03:52 | 36.89864 | -30.40501 | 33913 ft | 452 kts | 257° |
| 2026-04-17 03:52 | 36.87969 | -30.47999 | 33923 ft | 453 kts | 257° |
| 2026-04-17 03:53 | 36.86065 | -30.55509 | 33923 ft | 454 kts | 257° |
| 2026-04-17 03:53 | 36.84168 | -30.62966 | 33927 ft | 454 kts | 257° |
| 2026-04-17 03:54 | 36.82254 | -30.70473 | 33920 ft | 454 kts | 257° |
| 2026-04-17 03:54 | 36.80330 | -30.77997 | 33927 ft | 456 kts | 257° |
| 2026-04-17 03:55 | 36.78397 | -30.85532 | 33931 ft | 456 kts | 257° |
| 2026-04-17 03:55 | 36.76459 | -30.93062 | 33926 ft | 456 kts | 257° |
| 2026-04-17 03:56 | 36.74531 | -31.00535 | 33922 ft | 456 kts | 257° |
| 2026-04-17 03:56 | 36.72581 | -31.08069 | 33928 ft | 457 kts | 257° |
| 2026-04-17 03:57 | 36.70628 | -31.15597 | 33925 ft | 457 kts | 257° |
| 2026-04-17 03:57 | 36.68668 | -31.23126 | 33927 ft | 457 kts | 257° |
| 2026-04-17 03:58 | 36.66716 | -31.30600 | 33926 ft | 457 kts | 257° |
| 2026-04-17 03:58 | 36.64748 | -31.38120 | 33929 ft | 457 kts | 257° |
| 2026-04-17 03:59 | 36.62772 | -31.45644 | 33939 ft | 457 kts | 257° |
| 2026-04-17 03:59 | 36.60793 | -31.53158 | 33925 ft | 457 kts | 257° |
| 2026-04-17 04:00 | 36.58824 | -31.60612 | 33934 ft | 456 kts | 257° |
| 2026-04-17 04:00 | 36.56839 | -31.68107 | 33936 ft | 456 kts | 257° |
| 2026-04-17 04:01 | 36.54850 | -31.75596 | 33938 ft | 456 kts | 257° |
| 2026-04-17 04:01 | 36.52854 | -31.83086 | 33928 ft | 456 kts | 257° |
| 2026-04-17 04:02 | 36.50870 | -31.90515 | 33932 ft | 456 kts | 257° |
| 2026-04-17 04:02 | 36.48868 | -31.97986 | 33934 ft | 456 kts | 257° |
| 2026-04-17 04:03 | 36.46861 | -32.05458 | 33932 ft | 456 kts | 257° |
| 2026-04-17 04:03 | 36.44849 | -32.12925 | 33931 ft | 456 kts | 257° |
| 2026-04-17 04:04 | 36.42843 | -32.20350 | 33934 ft | 457 kts | 257° |
| 2026-04-17 04:04 | 36.40818 | -32.27824 | 33934 ft | 457 kts | 257° |
| 2026-04-17 04:05 | 36.38788 | -32.35294 | 33917 ft | 457 kts | 256° |
| 2026-04-17 04:05 | 36.36751 | -32.42770 | 33930 ft | 458 kts | 256° |
| 2026-04-17 04:06 | 36.34718 | -32.50209 | 33932 ft | 458 kts | 256° |
| 2026-04-17 04:06 | 36.32668 | -32.57691 | 33935 ft | 458 kts | 256° |
| 2026-04-17 04:07 | 36.30612 | -32.65172 | 33932 ft | 458 kts | 256° |
| 2026-04-17 04:07 | 36.28551 | -32.72651 | 33938 ft | 459 kts | 256° |
| 2026-04-17 04:08 | 36.26483 | -32.80135 | 33934 ft | 459 kts | 256° |
| 2026-04-17 04:08 | 36.24424 | -32.87563 | 33939 ft | 459 kts | 256° |
| 2026-04-17 04:09 | 36.22350 | -32.95030 | 33935 ft | 458 kts | 256° |
| 2026-04-17 04:09 | 36.20270 | -33.02493 | 33932 ft | 458 kts | 255° |
| 2026-04-17 04:10 | 36.18187 | -33.09947 | 33938 ft | 458 kts | 255° |
| 2026-04-17 04:10 | 36.16114 | -33.17348 | 33928 ft | 458 kts | 255° |
| 2026-04-17 04:11 | 36.14019 | -33.24807 | 33934 ft | 459 kts | 255° |
| 2026-04-17 04:11 | 36.11915 | -33.32274 | 33929 ft | 460 kts | 255° |
| 2026-04-17 04:12 | 36.09810 | -33.39724 | 33937 ft | 458 kts | 255° |
| 2026-04-17 04:12 | 36.07709 | -33.47142 | 33931 ft | 457 kts | 255° |
| 2026-04-17 04:13 | 36.05616 | -33.54514 | 33935 ft | 458 kts | 255° |
| 2026-04-17 04:13 | 36.03502 | -33.61935 | 33933 ft | 458 kts | 255° |
| 2026-04-17 04:14 | 36.01384 | -33.69354 | 33940 ft | 458 kts | 255° |
| 2026-04-17 04:14 | 35.99258 | -33.76779 | 33924 ft | 459 kts | 255° |
| 2026-04-17 04:15 | 35.97138 | -33.84163 | 33941 ft | 460 kts | 255° |
| 2026-04-17 04:15 | 35.94998 | -33.91598 | 33922 ft | 460 kts | 255° |
| 2026-04-17 04:16 | 35.92852 | -33.99032 | 33926 ft | 460 kts | 255° |
| 2026-04-17 04:16 | 35.90703 | -34.06456 | 33941 ft | 460 kts | 255° |
| 2026-04-17 04:17 | 35.88564 | -34.13830 | 33918 ft | 460 kts | 255° |
| 2026-04-17 04:17 | 35.86406 | -34.21247 | 33939 ft | 460 kts | 254° |
| 2026-04-17 04:18 | 35.84240 | -34.28671 | 33930 ft | 460 kts | 254° |
| 2026-04-17 04:18 | 35.82071 | -34.36088 | 33931 ft | 460 kts | 254° |
| 2026-04-17 04:19 | 35.79910 | -34.43457 | 33928 ft | 460 kts | 254° |
| 2026-04-17 04:19 | 35.77729 | -34.50875 | 33927 ft | 461 kts | 254° |
| 2026-04-17 04:20 | 35.75538 | -34.58308 | 33925 ft | 462 kts | 254° |
| 2026-04-17 04:20 | 35.73340 | -34.65741 | 33925 ft | 462 kts | 254° |
| 2026-04-17 04:21 | 35.71152 | -34.73124 | 33928 ft | 462 kts | 254° |
| 2026-04-17 04:21 | 35.68944 | -34.80553 | 33925 ft | 463 kts | 254° |
| 2026-04-17 04:22 | 35.66731 | -34.87982 | 33922 ft | 463 kts | 254° |
| 2026-04-17 04:22 | 35.64512 | -34.95410 | 33922 ft | 463 kts | 254° |
| 2026-04-17 04:23 | 35.62288 | -35.02836 | 33921 ft | 463 kts | 253° |
| 2026-04-17 04:23 | 35.60075 | -35.10210 | 33922 ft | 463 kts | 253° |
| 2026-04-17 04:24 | 35.57839 | -35.17636 | 33921 ft | 463 kts | 253° |
| 2026-04-17 04:24 | 35.55599 | -35.25058 | 33911 ft | 463 kts | 253° |
| 2026-04-17 04:25 | 35.53357 | -35.32467 | 33923 ft | 463 kts | 253° |
| 2026-04-17 04:25 | 35.51126 | -35.39820 | 33925 ft | 463 kts | 253° |
| 2026-04-17 04:26 | 35.48876 | -35.47219 | 33925 ft | 463 kts | 253° |
| 2026-04-17 04:26 | 35.46621 | -35.54615 | 33925 ft | 463 kts | 253° |
| 2026-04-17 04:27 | 35.44363 | -35.62000 | 33925 ft | 462 kts | 253° |
| 2026-04-17 04:27 | 35.42116 | -35.69331 | 33925 ft | 462 kts | 253° |
| 2026-04-17 04:28 | 35.39850 | -35.76706 | 33916 ft | 462 kts | 253° |
| 2026-04-17 04:28 | 35.37580 | -35.84073 | 33928 ft | 462 kts | 253° |
| 2026-04-17 04:29 | 35.35309 | -35.91425 | 33928 ft | 462 kts | 253° |
| 2026-04-17 04:29 | 35.33048 | -35.98729 | 33928 ft | 462 kts | 253° |
| 2026-04-17 04:30 | 35.30770 | -36.06066 | 33932 ft | 460 kts | 253° |
| 2026-04-17 04:30 | 35.28493 | -36.13385 | 33933 ft | 460 kts | 253° |
| 2026-04-17 04:31 | 35.26215 | -36.20689 | 33932 ft | 460 kts | 253° |
| 2026-04-17 04:31 | 35.23949 | -36.27934 | 33928 ft | 457 kts | 253° |
| 2026-04-17 04:32 | 35.21673 | -36.35191 | 33930 ft | 456 kts | 253° |
| 2026-04-17 04:32 | 35.19401 | -36.42420 | 33931 ft | 455 kts | 253° |
| 2026-04-17 04:33 | 35.17127 | -36.49640 | 33929 ft | 455 kts | 252° |
| 2026-04-17 04:33 | 35.14849 | -36.56856 | 33934 ft | 455 kts | 252° |
| 2026-04-17 04:34 | 35.11441 | -36.67616 | 33933 ft | 455 kts | 252° |
| 2026-04-17 04:34 | 35.09153 | -36.74815 | 33919 ft | 455 kts | 252° |
| 2026-04-17 04:35 | 35.06858 | -36.82023 | 33937 ft | 456 kts | 252° |
| 2026-04-17 04:35 | 35.04555 | -36.89237 | 33933 ft | 456 kts | 252° |
| 2026-04-17 04:36 | 35.02263 | -36.96399 | 33941 ft | 456 kts | 252° |
| 2026-04-17 04:36 | 34.99949 | -37.03612 | 33936 ft | 458 kts | 252° |
| 2026-04-17 04:37 | 34.97620 | -37.10859 | 33939 ft | 460 kts | 252° |
| 2026-04-17 04:37 | 34.95299 | -37.18057 | 33940 ft | 460 kts | 252° |
| 2026-04-17 04:38 | 34.92956 | -37.25306 | 33931 ft | 460 kts | 252° |
| 2026-04-17 04:38 | 34.90608 | -37.32555 | 33938 ft | 460 kts | 252° |
| 2026-04-17 04:39 | 34.88652 | -37.38581 | 33939 ft | 460 kts | 252° |
| 2026-04-17 04:39 | 34.85912 | -37.47001 | 33937 ft | 460 kts | 252° |
| 2026-04-17 04:40 | 34.83550 | -37.54241 | 33942 ft | 460 kts | 252° |
| 2026-04-17 04:40 | 34.81585 | -37.60248 | 33941 ft | 460 kts | 252° |
| 2026-04-17 04:41 | 34.79217 | -37.67477 | 33942 ft | 460 kts | 252° |
| 2026-04-17 04:41 | 34.76846 | -37.74697 | 33939 ft | 460 kts | 252° |
| 2026-04-17 04:42 | 34.74083 | -37.83087 | 33941 ft | 460 kts | 252° |
| 2026-04-17 04:42 | 34.72104 | -37.89083 | 33942 ft | 460 kts | 252° |
| 2026-04-17 04:43 | 34.69718 | -37.96294 | 33940 ft | 460 kts | 252° |
| 2026-04-17 04:43 | 34.67326 | -38.03510 | 33951 ft | 460 kts | 252° |
| 2026-04-17 04:44 | 34.64932 | -38.10715 | 33949 ft | 460 kts | 252° |
| 2026-04-17 04:44 | 34.62529 | -38.17926 | 33948 ft | 460 kts | 252° |
| 2026-04-17 04:45 | 34.60140 | -38.25082 | 33946 ft | 461 kts | 252° |
| 2026-04-17 04:45 | 34.57726 | -38.32295 | 33954 ft | 461 kts | 252° |
| 2026-04-17 04:46 | 34.55309 | -38.39501 | 33951 ft | 461 kts | 252° |
| 2026-04-17 04:46 | 34.52887 | -38.46704 | 33945 ft | 462 kts | 252° |
| 2026-04-17 04:47 | 34.50474 | -38.53864 | 33952 ft | 462 kts | 252° |
| 2026-04-17 04:47 | 34.48037 | -38.61079 | 33953 ft | 462 kts | 252° |
| 2026-04-17 04:48 | 34.45598 | -38.68282 | 33943 ft | 462 kts | 252° |
| 2026-04-17 04:48 | 34.43147 | -38.75505 | 33953 ft | 464 kts | 252° |
| 2026-04-17 04:49 | 34.40687 | -38.82736 | 33951 ft | 464 kts | 252° |
| 2026-04-17 04:49 | 34.38240 | -38.89911 | 33955 ft | 464 kts | 252° |
| 2026-04-17 04:50 | 34.35774 | -38.97128 | 33955 ft | 464 kts | 252° |
| 2026-04-17 04:50 | 34.33301 | -39.04347 | 33959 ft | 464 kts | 252° |
| 2026-04-17 04:51 | 34.30841 | -39.11513 | 33956 ft | 464 kts | 252° |
| 2026-04-17 04:51 | 34.28357 | -39.18732 | 33961 ft | 465 kts | 252° |
| 2026-04-17 04:52 | 34.25865 | -39.25958 | 33966 ft | 466 kts | 252° |
| 2026-04-17 04:52 | 34.23368 | -39.33182 | 33963 ft | 466 kts | 252° |
| 2026-04-17 04:53 | 34.20864 | -39.40409 | 33963 ft | 467 kts | 252° |
| 2026-04-17 04:55 | 34.10820 | -39.69228 | 33965 ft | 465 kts | 252° |
| 2026-04-17 04:55 | 34.08321 | -39.76363 | 33965 ft | 465 kts | 252° |
| 2026-04-17 04:56 | 34.05800 | -39.83543 | 33963 ft | 465 kts | 252° |
| 2026-04-17 04:56 | 34.03272 | -39.90724 | 33970 ft | 465 kts | 252° |
| 2026-04-17 04:57 | 34.00743 | -39.97902 | 33963 ft | 465 kts | 252° |
| 2026-04-17 04:57 | 33.98693 | -40.05182 | 33974 ft | 461 kts | 258° |
| 2026-04-17 04:58 | 33.96811 | -40.12577 | 33974 ft | 462 kts | 258° |
| 2026-04-17 04:58 | 33.94957 | -40.19977 | 33974 ft | 462 kts | 258° |
| 2026-04-17 04:59 | 33.93093 | -40.27375 | 33966 ft | 462 kts | 258° |
| 2026-04-17 04:59 | 33.91227 | -40.34737 | 33974 ft | 464 kts | 258° |
| 2026-04-17 05:00 | 33.89337 | -40.42161 | 33977 ft | 464 kts | 258° |
| 2026-04-17 05:00 | 33.87443 | -40.49576 | 33971 ft | 464 kts | 258° |
| 2026-04-17 05:01 | 33.85540 | -40.57009 | 33975 ft | 465 kts | 258° |
| 2026-04-17 05:01 | 33.83642 | -40.64399 | 33974 ft | 466 kts | 258° |
| 2026-04-17 05:02 | 33.81726 | -40.71838 | 33969 ft | 466 kts | 258° |
| 2026-04-17 05:02 | 33.79803 | -40.79286 | 33978 ft | 467 kts | 258° |
| 2026-04-17 05:03 | 33.77875 | -40.86731 | 33981 ft | 467 kts | 258° |
| 2026-04-17 05:03 | 33.75955 | -40.94126 | 33976 ft | 467 kts | 258° |
| 2026-04-17 05:04 | 33.74014 | -41.01583 | 33982 ft | 468 kts | 258° |
| 2026-04-17 05:04 | 33.72065 | -41.09051 | 33982 ft | 468 kts | 257° |
| 2026-04-17 05:05 | 33.70112 | -41.16509 | 33982 ft | 468 kts | 257° |
| 2026-04-17 05:05 | 33.68166 | -41.23921 | 33979 ft | 468 kts | 257° |
| 2026-04-17 05:06 | 33.66204 | -41.31376 | 33984 ft | 468 kts | 257° |
| 2026-04-17 05:06 | 33.64238 | -41.38821 | 33984 ft | 468 kts | 257° |
| 2026-04-17 05:07 | 33.62269 | -41.46261 | 33985 ft | 468 kts | 257° |
| 2026-04-17 05:07 | 33.60308 | -41.53654 | 33985 ft | 468 kts | 257° |
| 2026-04-17 05:08 | 33.58328 | -41.61093 | 33985 ft | 469 kts | 257° |
| 2026-04-17 05:08 | 33.56338 | -41.68555 | 33985 ft | 470 kts | 257° |
| 2026-04-17 05:09 | 33.54341 | -41.76017 | 33985 ft | 470 kts | 257° |
| 2026-04-17 05:09 | 33.52353 | -41.83428 | 33985 ft | 471 kts | 257° |
| 2026-04-17 05:10 | 33.50342 | -41.90906 | 33990 ft | 471 kts | 257° |
| 2026-04-17 05:10 | 33.48327 | -41.98377 | 33990 ft | 471 kts | 257° |
| 2026-04-17 05:11 | 33.46302 | -42.05863 | 33991 ft | 473 kts | 257° |
| 2026-04-17 05:11 | 33.44284 | -42.13306 | 33991 ft | 473 kts | 257° |
| 2026-04-17 05:12 | 33.42246 | -42.20803 | 33984 ft | 473 kts | 257° |
| 2026-04-17 05:12 | 33.40201 | -42.28303 | 33990 ft | 475 kts | 257° |
| 2026-04-17 05:13 | 33.38148 | -42.35816 | 33987 ft | 475 kts | 257° |
| 2026-04-17 05:13 | 33.36102 | -42.43278 | 33988 ft | 475 kts | 257° |
| 2026-04-17 05:14 | 33.34035 | -42.50799 | 33993 ft | 476 kts | 256° |
| 2026-04-17 05:14 | 33.31963 | -42.58317 | 33993 ft | 476 kts | 256° |
| 2026-04-17 05:15 | 33.29885 | -42.65840 | 33999 ft | 477 kts | 256° |
| 2026-04-17 05:15 | 33.27812 | -42.73323 | 33996 ft | 477 kts | 256° |
| 2026-04-17 05:16 | 33.25723 | -42.80840 | 33996 ft | 476 kts | 256° |
| 2026-04-17 05:16 | 33.23632 | -42.88351 | 33999 ft | 477 kts | 256° |
| 2026-04-17 05:17 | 33.21532 | -42.95875 | 33999 ft | 478 kts | 256° |
| 2026-04-17 05:17 | 33.19441 | -43.03344 | 33994 ft | 478 kts | 256° |
| 2026-04-17 05:18 | 33.17328 | -43.10869 | 33999 ft | 479 kts | 256° |
| 2026-04-17 05:18 | 33.15208 | -43.18405 | 33998 ft | 479 kts | 256° |
| 2026-04-17 05:19 | 33.13083 | -43.25934 | 34001 ft | 479 kts | 256° |
| 2026-04-17 05:19 | 33.10953 | -43.33465 | 34001 ft | 479 kts | 256° |
| 2026-04-17 05:20 | 33.08833 | -43.40938 | 34001 ft | 479 kts | 256° |
| 2026-04-17 05:20 | 33.06694 | -43.48461 | 34002 ft | 480 kts | 256° |
| 2026-04-17 05:21 | 33.04545 | -43.55999 | 34002 ft | 481 kts | 256° |
| 2026-04-17 05:21 | 33.02403 | -43.63493 | 33991 ft | 481 kts | 255° |
| 2026-04-17 05:22 | 33.00242 | -43.71035 | 34003 ft | 482 kts | 255° |
| 2026-04-17 05:22 | 32.98072 | -43.78588 | 34004 ft | 482 kts | 255° |
| 2026-04-17 05:23 | 32.95898 | -43.86134 | 34007 ft | 482 kts | 255° |
| 2026-04-17 05:23 | 32.93714 | -43.93697 | 34001 ft | 483 kts | 255° |
| 2026-04-17 05:24 | 32.91539 | -44.01207 | 34005 ft | 483 kts | 255° |
| 2026-04-17 05:24 | 32.89346 | -44.08760 | 34006 ft | 483 kts | 255° |
| 2026-04-17 05:25 | 32.87149 | -44.16307 | 34013 ft | 483 kts | 255° |
| 2026-04-17 05:25 | 32.84946 | -44.23858 | 34005 ft | 483 kts | 255° |
| 2026-04-17 05:26 | 32.82752 | -44.31360 | 34007 ft | 484 kts | 255° |
| 2026-04-17 05:26 | 32.80535 | -44.38919 | 33998 ft | 485 kts | 255° |
| 2026-04-17 05:27 | 32.78310 | -44.46485 | 34006 ft | 485 kts | 255° |
| 2026-04-17 05:27 | 32.76080 | -44.54050 | 34007 ft | 485 kts | 254° |
| 2026-04-17 05:28 | 32.73844 | -44.61618 | 34000 ft | 485 kts | 254° |
| 2026-04-17 05:28 | 32.71616 | -44.69138 | 34015 ft | 486 kts | 254° |
| 2026-04-17 05:29 | 32.69364 | -44.76719 | 34012 ft | 487 kts | 254° |
| 2026-04-17 05:29 | 32.67110 | -44.84289 | 34010 ft | 487 kts | 254° |
| 2026-04-17 05:30 | 32.64843 | -44.91883 | 34013 ft | 488 kts | 254° |
| 2026-04-17 05:30 | 32.62587 | -44.99420 | 34017 ft | 488 kts | 254° |
| 2026-04-17 05:31 | 32.60310 | -45.07011 | 34013 ft | 488 kts | 254° |
| 2026-04-17 05:31 | 32.58028 | -45.14594 | 34013 ft | 488 kts | 254° |
| 2026-04-17 05:32 | 32.55743 | -45.22173 | 34008 ft | 488 kts | 253° |
| 2026-04-17 05:32 | 32.53468 | -45.29702 | 34012 ft | 489 kts | 253° |
| 2026-04-17 05:33 | 32.51170 | -45.37285 | 34011 ft | 489 kts | 253° |
| 2026-04-17 05:33 | 32.48867 | -45.44864 | 34012 ft | 488 kts | 253° |
| 2026-04-17 05:34 | 32.46560 | -45.52440 | 34014 ft | 490 kts | 253° |
| 2026-04-17 05:34 | 32.44257 | -45.59983 | 34011 ft | 490 kts | 253° |
| 2026-04-17 05:35 | 32.41936 | -45.67566 | 34011 ft | 490 kts | 253° |
| 2026-04-17 05:35 | 32.39611 | -45.75144 | 34013 ft | 491 kts | 253° |
| 2026-04-17 05:36 | 32.37273 | -45.82747 | 34014 ft | 492 kts | 253° |
| 2026-04-17 05:36 | 32.34948 | -45.90288 | 34016 ft | 491 kts | 253° |
| 2026-04-17 05:37 | 32.32604 | -45.97871 | 34015 ft | 491 kts | 252° |
| 2026-04-17 05:37 | 32.30252 | -46.05463 | 34016 ft | 492 kts | 252° |
| 2026-04-17 05:38 | 32.27891 | -46.13065 | 34015 ft | 493 kts | 252° |
| 2026-04-17 05:38 | 32.25525 | -46.20664 | 34014 ft | 493 kts | 252° |
| 2026-04-17 05:39 | 32.23155 | -46.28257 | 34013 ft | 493 kts | 252° |
| 2026-04-17 05:39 | 32.20789 | -46.35820 | 34020 ft | 495 kts | 252° |
| 2026-04-17 05:40 | 32.18400 | -46.43435 | 34016 ft | 495 kts | 252° |
| 2026-04-17 05:40 | 32.16007 | -46.51046 | 34022 ft | 495 kts | 252° |
| 2026-04-17 05:41 | 32.13621 | -46.58616 | 34017 ft | 496 kts | 252° |
| 2026-04-17 05:41 | 32.11213 | -46.66239 | 34019 ft | 496 kts | 252° |
| 2026-04-17 05:42 | 32.08798 | -46.73863 | 34018 ft | 496 kts | 252° |
| 2026-04-17 05:42 | 32.06380 | -46.81480 | 34018 ft | 496 kts | 252° |
| 2026-04-17 05:43 | 32.03974 | -46.89039 | 34016 ft | 496 kts | 252° |
| 2026-04-17 05:43 | 32.01548 | -46.96646 | 34016 ft | 496 kts | 251° |
| 2026-04-17 05:44 | 31.99117 | -47.04247 | 34019 ft | 495 kts | 251° |
| 2026-04-17 05:44 | 31.96684 | -47.11838 | 34015 ft | 496 kts | 251° |
| 2026-04-17 05:45 | 31.94239 | -47.19450 | 34014 ft | 497 kts | 251° |
| 2026-04-17 05:45 | 31.91806 | -47.27002 | 34017 ft | 496 kts | 251° |
| 2026-04-17 05:46 | 31.89356 | -47.34592 | 34027 ft | 496 kts | 251° |
| 2026-04-17 05:46 | 31.86895 | -47.42198 | 34016 ft | 498 kts | 251° |
| 2026-04-17 05:47 | 31.84428 | -47.49805 | 34019 ft | 497 kts | 251° |
| 2026-04-17 05:47 | 31.81974 | -47.57350 | 34026 ft | 497 kts | 251° |
| 2026-04-17 05:48 | 31.79500 | -47.64945 | 34021 ft | 498 kts | 251° |
| 2026-04-17 05:48 | 31.77018 | -47.72541 | 34018 ft | 498 kts | 251° |
| 2026-04-17 05:49 | 31.74533 | -47.80132 | 34021 ft | 498 kts | 251° |
| 2026-04-17 05:49 | 31.72058 | -47.87671 | 34023 ft | 498 kts | 250° |
| 2026-04-17 05:50 | 31.69562 | -47.95261 | 34018 ft | 498 kts | 250° |
| 2026-04-17 05:50 | 31.67059 | -48.02851 | 34019 ft | 499 kts | 250° |
| 2026-04-17 05:51 | 31.64552 | -48.10437 | 34021 ft | 498 kts | 250° |
| 2026-04-17 05:51 | 31.62058 | -48.17966 | 34022 ft | 498 kts | 250° |
| 2026-04-17 05:52 | 31.59544 | -48.25537 | 34021 ft | 498 kts | 250° |
| 2026-04-17 05:52 | 31.57025 | -48.33108 | 34021 ft | 498 kts | 250° |
| 2026-04-17 05:53 | 31.54500 | -48.40676 | 34020 ft | 498 kts | 250° |
| 2026-04-17 05:53 | 31.51972 | -48.48237 | 34017 ft | 498 kts | 250° |
| 2026-04-17 05:54 | 31.49458 | -48.55741 | 34019 ft | 498 kts | 250° |
| 2026-04-17 05:54 | 31.46922 | -48.63292 | 34018 ft | 498 kts | 250° |
| 2026-04-17 05:55 | 31.44381 | -48.70840 | 34017 ft | 498 kts | 250° |
| 2026-04-17 05:55 | 31.41837 | -48.78378 | 34021 ft | 498 kts | 250° |
| 2026-04-17 05:56 | 31.39306 | -48.85862 | 34017 ft | 498 kts | 250° |
| 2026-04-17 05:56 | 31.36752 | -48.93397 | 34015 ft | 498 kts | 250° |
| 2026-04-17 05:57 | 31.34197 | -49.00920 | 34021 ft | 498 kts | 250° |
| 2026-04-17 05:57 | 31.31635 | -49.08444 | 34018 ft | 498 kts | 249° |
| 2026-04-17 05:58 | 31.29086 | -49.15913 | 34016 ft | 498 kts | 249° |
| 2026-04-17 05:59 | 31.25230 | -49.27183 | 34017 ft | 498 kts | 249° |
| 2026-04-17 05:59 | 31.22654 | -49.34690 | 34014 ft | 498 kts | 249° |
| 2026-04-17 06:00 | 31.20069 | -49.42205 | 34015 ft | 499 kts | 249° |
| 2026-04-17 06:00 | 31.17497 | -49.49668 | 34018 ft | 499 kts | 249° |
| 2026-04-17 06:01 | 31.14900 | -49.57185 | 34017 ft | 499 kts | 249° |
| 2026-04-17 06:01 | 31.12302 | -49.64687 | 34016 ft | 499 kts | 249° |
| 2026-04-17 06:02 | 31.09700 | -49.72187 | 34015 ft | 498 kts | 249° |
| 2026-04-17 06:02 | 31.07111 | -49.79631 | 34014 ft | 498 kts | 249° |
| 2026-04-17 06:03 | 31.04502 | -49.87118 | 34015 ft | 498 kts | 249° |
| 2026-04-17 06:03 | 31.01887 | -49.94605 | 34015 ft | 499 kts | 249° |
| 2026-04-17 06:04 | 30.99596 | -50.02231 | 34279 ft | 498 kts | 256° |
| 2026-04-17 06:04 | 30.98733 | -50.06080 | 34466 ft | 497 kts | 257° |
| 2026-04-17 06:04 | 30.97901 | -50.09982 | 34673 ft | 496 kts | 257° |
| 2026-04-17 06:04 | 30.97092 | -50.13881 | 34855 ft | 495 kts | 258° |
| 2026-04-17 06:05 | 30.96292 | -50.17779 | 35025 ft | 494 kts | 258° |
| 2026-04-17 06:05 | 30.95493 | -50.21670 | 35185 ft | 494 kts | 258° |
| 2026-04-17 06:05 | 30.94690 | -50.25559 | 35350 ft | 493 kts | 257° |
| 2026-04-17 06:05 | 30.93887 | -50.29430 | 35558 ft | 491 kts | 257° |
| 2026-04-17 06:06 | 30.93081 | -50.33297 | 35733 ft | 491 kts | 257° |
| 2026-04-17 06:06 | 30.92285 | -50.37102 | 35880 ft | 490 kts | 257° |
| 2026-04-17 06:06 | 30.91477 | -50.40955 | 35986 ft | 491 kts | 257° |
| 2026-04-17 06:07 | 30.89851 | -50.48685 | 36013 ft | 491 kts | 257° |
| 2026-04-17 06:07 | 30.88222 | -50.56408 | 36014 ft | 490 kts | 257° |
| 2026-04-17 06:08 | 30.86604 | -50.64053 | 36003 ft | 490 kts | 257° |
| 2026-04-17 06:08 | 30.84974 | -50.71734 | 36010 ft | 489 kts | 257° |
| 2026-04-17 06:09 | 30.83339 | -50.79414 | 36010 ft | 489 kts | 257° |
| 2026-04-17 06:09 | 30.81700 | -50.87090 | 36012 ft | 489 kts | 257° |
| 2026-04-17 06:10 | 30.80067 | -50.94712 | 36006 ft | 489 kts | 257° |
| 2026-04-17 06:10 | 30.78419 | -51.02382 | 36008 ft | 489 kts | 257° |
| 2026-04-17 06:11 | 30.76767 | -51.10048 | 36002 ft | 488 kts | 257° |
| 2026-04-17 06:11 | 30.75111 | -51.17707 | 36005 ft | 488 kts | 257° |
| 2026-04-17 06:12 | 30.73461 | -51.25315 | 36004 ft | 489 kts | 257° |
| 2026-04-17 06:12 | 30.71797 | -51.32967 | 36005 ft | 489 kts | 257° |
| 2026-04-17 06:13 | 30.70127 | -51.40619 | 36005 ft | 489 kts | 257° |
| 2026-04-17 06:13 | 30.68454 | -51.48264 | 36003 ft | 488 kts | 257° |
| 2026-04-17 06:14 | 30.66788 | -51.55854 | 36004 ft | 488 kts | 257° |
| 2026-04-17 06:14 | 30.65107 | -51.63489 | 36004 ft | 488 kts | 257° |
| 2026-04-17 06:15 | 30.63421 | -51.71125 | 36002 ft | 488 kts | 257° |
| 2026-04-17 06:15 | 30.61730 | -51.78762 | 36007 ft | 488 kts | 256° |
| 2026-04-17 06:16 | 30.60035 | -51.86392 | 35998 ft | 488 kts | 256° |
| 2026-04-17 06:16 | 30.58347 | -51.93968 | 36006 ft | 488 kts | 256° |
| 2026-04-17 06:17 | 30.56643 | -52.01590 | 36003 ft | 488 kts | 256° |
| 2026-04-17 06:17 | 30.54935 | -52.09212 | 36005 ft | 488 kts | 256° |
| 2026-04-17 06:18 | 30.53222 | -52.16832 | 36006 ft | 488 kts | 256° |
| 2026-04-17 06:18 | 30.51517 | -52.24397 | 36003 ft | 489 kts | 256° |
| 2026-04-17 06:19 | 30.49793 | -52.32022 | 36006 ft | 489 kts | 256° |
| 2026-04-17 06:19 | 30.48062 | -52.39654 | 36003 ft | 489 kts | 256° |
| 2026-04-17 06:20 | 30.46328 | -52.47277 | 36004 ft | 489 kts | 256° |
| 2026-04-17 06:20 | 30.44600 | -52.54852 | 36002 ft | 489 kts | 256° |
| 2026-04-17 06:21 | 30.42855 | -52.62483 | 36006 ft | 491 kts | 255° |
| 2026-04-17 06:21 | 30.41096 | -52.70153 | 36005 ft | 493 kts | 256° |
| 2026-04-17 06:22 | 30.39331 | -52.77821 | 36006 ft | 493 kts | 255° |
| 2026-04-17 06:22 | 30.37561 | -52.85491 | 36005 ft | 493 kts | 256° |
| 2026-04-17 06:23 | 30.35800 | -52.93102 | 36003 ft | 493 kts | 255° |
| 2026-04-17 06:23 | 30.34021 | -53.00766 | 35998 ft | 493 kts | 255° |
| 2026-04-17 06:24 | 30.32237 | -53.08433 | 36004 ft | 494 kts | 255° |
| 2026-04-17 06:24 | 30.30446 | -53.16104 | 36000 ft | 494 kts | 255° |
| 2026-04-17 06:25 | 30.28663 | -53.23724 | 36002 ft | 494 kts | 255° |
| 2026-04-17 06:25 | 30.26862 | -53.31392 | 36002 ft | 494 kts | 255° |
| 2026-04-17 06:26 | 30.25057 | -53.39059 | 36003 ft | 494 kts | 255° |
| 2026-04-17 06:26 | 30.23248 | -53.46720 | 35997 ft | 494 kts | 255° |
| 2026-04-17 06:27 | 30.21447 | -53.54330 | 36000 ft | 494 kts | 255° |
| 2026-04-17 06:27 | 30.19629 | -53.61986 | 36001 ft | 494 kts | 255° |
| 2026-04-17 06:28 | 30.17806 | -53.69644 | 35999 ft | 494 kts | 255° |
| 2026-04-17 06:28 | 30.15980 | -53.77290 | 35996 ft | 494 kts | 255° |
| 2026-04-17 06:29 | 30.14161 | -53.84889 | 36001 ft | 493 kts | 255° |
| 2026-04-17 06:29 | 30.12328 | -53.92522 | 35999 ft | 493 kts | 255° |
| 2026-04-17 06:30 | 30.10490 | -54.00156 | 35999 ft | 493 kts | 255° |
| 2026-04-17 06:30 | 30.08649 | -54.07781 | 35998 ft | 494 kts | 255° |
| 2026-04-17 06:31 | 30.06813 | -54.15367 | 35991 ft | 494 kts | 255° |
| 2026-04-17 06:31 | 30.04960 | -54.22998 | 35994 ft | 492 kts | 255° |
| 2026-04-17 06:32 | 30.03112 | -54.30589 | 35991 ft | 491 kts | 255° |
| 2026-04-17 06:32 | 30.01264 | -54.38159 | 35994 ft | 490 kts | 255° |
| 2026-04-17 06:33 | 29.99428 | -54.45664 | 35991 ft | 490 kts | 255° |
| 2026-04-17 06:33 | 29.97572 | -54.53225 | 35993 ft | 490 kts | 255° |
| 2026-04-17 06:34 | 29.95711 | -54.60788 | 35993 ft | 490 kts | 255° |
| 2026-04-17 06:34 | 29.93850 | -54.68332 | 35992 ft | 488 kts | 255° |
| 2026-04-17 06:35 | 29.92002 | -54.75799 | 35989 ft | 487 kts | 255° |
| 2026-04-17 06:35 | 29.90140 | -54.83306 | 35984 ft | 487 kts | 255° |
| 2026-04-17 06:36 | 29.88274 | -54.90810 | 35987 ft | 487 kts | 255° |
| 2026-04-17 06:36 | 29.86402 | -54.98316 | 35983 ft | 487 kts | 254° |
| 2026-04-17 06:37 | 29.84539 | -55.05767 | 35990 ft | 488 kts | 254° |
| 2026-04-17 06:37 | 29.82658 | -55.13273 | 35985 ft | 487 kts | 254° |
| 2026-04-17 06:38 | 29.80779 | -55.20749 | 35983 ft | 486 kts | 254° |
| 2026-04-17 06:38 | 29.78895 | -55.28223 | 35982 ft | 486 kts | 254° |
| 2026-04-17 06:39 | 29.77017 | -55.35657 | 35985 ft | 487 kts | 254° |
| 2026-04-17 06:39 | 29.75121 | -55.43142 | 35981 ft | 487 kts | 254° |
| 2026-04-17 06:40 | 29.73219 | -55.50629 | 35981 ft | 487 kts | 254° |
| 2026-04-17 06:40 | 29.71316 | -55.58102 | 35980 ft | 486 kts | 254° |
| 2026-04-17 06:41 | 29.69423 | -55.65517 | 35983 ft | 487 kts | 254° |
| 2026-04-17 06:41 | 29.67513 | -55.72982 | 35985 ft | 487 kts | 254° |
| 2026-04-17 06:42 | 29.65599 | -55.80442 | 35979 ft | 487 kts | 254° |
| 2026-04-17 06:42 | 29.63677 | -55.87910 | 35978 ft | 488 kts | 254° |
| 2026-04-17 06:43 | 29.61763 | -55.95332 | 35980 ft | 487 kts | 253° |
| 2026-04-17 06:43 | 29.59835 | -56.02788 | 35977 ft | 486 kts | 253° |
| 2026-04-17 06:44 | 29.57905 | -56.10236 | 35975 ft | 486 kts | 253° |
| 2026-04-17 06:44 | 29.55971 | -56.17677 | 35978 ft | 486 kts | 253° |
| 2026-04-17 06:45 | 29.54045 | -56.25067 | 35980 ft | 486 kts | 253° |
| 2026-04-17 06:45 | 29.52102 | -56.32507 | 35978 ft | 486 kts | 253° |
| 2026-04-17 06:46 | 29.50154 | -56.39945 | 35977 ft | 486 kts | 253° |
| 2026-04-17 06:46 | 29.48204 | -56.47374 | 35982 ft | 486 kts | 253° |
| 2026-04-17 06:47 | 29.46265 | -56.54744 | 35978 ft | 486 kts | 253° |
| 2026-04-17 06:47 | 29.44308 | -56.62160 | 35978 ft | 486 kts | 253° |
| 2026-04-17 06:48 | 29.42345 | -56.69582 | 35976 ft | 486 kts | 253° |
| 2026-04-17 06:48 | 29.40379 | -56.76996 | 35976 ft | 486 kts | 253° |
| 2026-04-17 06:49 | 29.38423 | -56.84356 | 35978 ft | 485 kts | 253° |
| 2026-04-17 06:49 | 29.36452 | -56.91754 | 35977 ft | 485 kts | 253° |
| 2026-04-17 06:50 | 29.34478 | -56.99145 | 35972 ft | 485 kts | 253° |
| 2026-04-17 06:50 | 29.32499 | -57.06534 | 35976 ft | 485 kts | 253° |
| 2026-04-17 06:51 | 29.30530 | -57.13873 | 35972 ft | 485 kts | 253° |
| 2026-04-17 06:51 | 29.28541 | -57.21266 | 35974 ft | 486 kts | 253° |
| 2026-04-17 06:52 | 29.26549 | -57.28651 | 35975 ft | 485 kts | 253° |
| 2026-04-17 06:52 | 29.24556 | -57.36024 | 35975 ft | 484 kts | 253° |
| 2026-04-17 06:53 | 29.22559 | -57.43389 | 35974 ft | 485 kts | 253° |
| 2026-04-17 06:53 | 29.20569 | -57.50718 | 35970 ft | 485 kts | 253° |
| 2026-04-17 06:54 | 29.18561 | -57.58090 | 35974 ft | 486 kts | 253° |
| 2026-04-17 06:54 | 29.16548 | -57.65465 | 35975 ft | 486 kts | 253° |
| 2026-04-17 06:55 | 29.14528 | -57.72847 | 35972 ft | 487 kts | 252° |
| 2026-04-17 06:55 | 29.12513 | -57.80193 | 35969 ft | 487 kts | 252° |
| 2026-04-17 06:56 | 29.10480 | -57.87587 | 35975 ft | 487 kts | 253° |
| 2026-04-17 06:56 | 29.08443 | -57.94978 | 35968 ft | 488 kts | 252° |
| 2026-04-17 06:57 | 29.06399 | -58.02379 | 35969 ft | 489 kts | 252° |
| 2026-04-17 06:57 | 29.04360 | -58.09741 | 35969 ft | 489 kts | 252° |
| 2026-04-17 06:58 | 29.02304 | -58.17148 | 35967 ft | 489 kts | 252° |
| 2026-04-17 06:58 | 29.00249 | -58.24533 | 35969 ft | 488 kts | 253° |
| 2026-04-17 06:59 | 28.98187 | -58.31926 | 35969 ft | 488 kts | 252° |
| 2026-04-17 06:59 | 28.96137 | -58.39259 | 35965 ft | 488 kts | 252° |
| 2026-04-17 07:00 | 28.94068 | -58.46646 | 35967 ft | 488 kts | 252° |
| 2026-04-17 07:00 | 28.91993 | -58.54032 | 35970 ft | 490 kts | 252° |
| 2026-04-17 07:01 | 28.89908 | -58.61440 | 35972 ft | 490 kts | 252° |
| 2026-04-17 07:01 | 28.87837 | -58.68778 | 35971 ft | 489 kts | 252° |
| 2026-04-17 07:02 | 28.85750 | -58.76157 | 35971 ft | 488 kts | 252° |
| 2026-04-17 07:02 | 28.83661 | -58.83527 | 35965 ft | 489 kts | 252° |
| 2026-04-17 07:03 | 28.81566 | -58.90901 | 35967 ft | 488 kts | 252° |
| 2026-04-17 07:03 | 28.79468 | -58.98267 | 35968 ft | 489 kts | 252° |
| 2026-04-17 07:04 | 28.77380 | -59.05581 | 35969 ft | 489 kts | 252° |
| 2026-04-17 07:04 | 28.75272 | -59.12950 | 35954 ft | 489 kts | 252° |
| 2026-04-17 07:05 | 28.73163 | -59.20304 | 35964 ft | 488 kts | 252° |
| 2026-04-17 07:05 | 28.71050 | -59.27654 | 35951 ft | 488 kts | 252° |
| 2026-04-17 07:06 | 28.68948 | -59.34951 | 35968 ft | 488 kts | 252° |
| 2026-04-17 07:06 | 28.66825 | -59.42306 | 35959 ft | 489 kts | 252° |
| 2026-04-17 07:07 | 28.64696 | -59.49664 | 35951 ft | 489 kts | 252° |
| 2026-04-17 07:07 | 28.62561 | -59.57023 | 35954 ft | 489 kts | 252° |
| 2026-04-17 07:08 | 28.60443 | -59.64310 | 35953 ft | 488 kts | 252° |
| 2026-04-17 07:08 | 28.58303 | -59.71652 | 35952 ft | 489 kts | 252° |
| 2026-04-17 07:09 | 28.56159 | -59.78997 | 35962 ft | 489 kts | 252° |
| 2026-04-17 07:09 | 28.54009 | -59.86342 | 35956 ft | 489 kts | 252° |
| 2026-04-17 07:10 | 28.51870 | -59.93636 | 35952 ft | 490 kts | 252° |
| 2026-04-17 07:10 | 28.49435 | -60.00868 | 35949 ft | 491 kts | 243° |
| 2026-04-17 07:11 | 28.46179 | -60.07685 | 35966 ft | 491 kts | 241° |
| 2026-04-17 07:11 | 28.42779 | -60.14406 | 35961 ft | 490 kts | 241° |
| 2026-04-17 07:12 | 28.39359 | -60.21112 | 35946 ft | 491 kts | 240° |
| 2026-04-17 07:12 | 28.35963 | -60.27794 | 35946 ft | 492 kts | 240° |
| 2026-04-17 07:13 | 28.32551 | -60.34523 | 35959 ft | 492 kts | 241° |
| 2026-04-17 07:13 | 28.29138 | -60.41246 | 35945 ft | 491 kts | 241° |
| 2026-04-17 07:14 | 28.25733 | -60.47943 | 35958 ft | 490 kts | 241° |
| 2026-04-17 07:14 | 28.22340 | -60.54605 | 35949 ft | 492 kts | 241° |
| 2026-04-17 07:15 | 28.18913 | -60.61321 | 35957 ft | 492 kts | 241° |
| 2026-04-17 07:15 | 28.15485 | -60.68029 | 35940 ft | 492 kts | 241° |
| 2026-04-17 07:16 | 28.12056 | -60.74727 | 35955 ft | 491 kts | 241° |
| 2026-04-17 07:16 | 28.08653 | -60.81367 | 35949 ft | 491 kts | 241° |
| 2026-04-17 07:17 | 28.05217 | -60.88059 | 35952 ft | 491 kts | 241° |
| 2026-04-17 07:17 | 28.00059 | -60.98084 | 35936 ft | 492 kts | 240° |
| 2026-04-17 07:18 | 27.96637 | -61.04723 | 35942 ft | 491 kts | 241° |
| 2026-04-17 07:18 | 27.93188 | -61.11403 | 35941 ft | 492 kts | 241° |
| 2026-04-17 07:19 | 27.89736 | -61.18078 | 35944 ft | 492 kts | 241° |
| 2026-04-17 07:19 | 27.86283 | -61.24746 | 35943 ft | 492 kts | 241° |
| 2026-04-17 07:20 | 27.82847 | -61.31369 | 35943 ft | 492 kts | 241° |
| 2026-04-17 07:20 | 27.79385 | -61.38034 | 35945 ft | 493 kts | 241° |
| 2026-04-17 07:21 | 27.75907 | -61.44717 | 35934 ft | 493 kts | 241° |
| 2026-04-17 07:21 | 27.72430 | -61.51389 | 35940 ft | 492 kts | 240° |
| 2026-04-17 07:22 | 27.68977 | -61.58004 | 35938 ft | 492 kts | 240° |
| 2026-04-17 07:22 | 27.65498 | -61.64660 | 35937 ft | 492 kts | 240° |
| 2026-04-17 07:23 | 27.62016 | -61.71308 | 35939 ft | 492 kts | 241° |
| 2026-04-17 07:23 | 27.58530 | -61.77957 | 35938 ft | 492 kts | 240° |
| 2026-04-17 07:24 | 27.55040 | -61.84603 | 35941 ft | 493 kts | 240° |
| 2026-04-17 07:24 | 27.51571 | -61.91197 | 35936 ft | 493 kts | 240° |
| 2026-04-17 07:25 | 27.48072 | -61.97839 | 35936 ft | 494 kts | 240° |
| 2026-04-17 07:25 | 27.44558 | -62.04499 | 35936 ft | 495 kts | 240° |
| 2026-04-17 07:26 | 27.41040 | -62.11156 | 35938 ft | 495 kts | 240° |
| 2026-04-17 07:26 | 27.37547 | -62.17755 | 35936 ft | 494 kts | 240° |
| 2026-04-17 07:27 | 27.34034 | -62.24382 | 35933 ft | 493 kts | 240° |
| 2026-04-17 07:27 | 27.30502 | -62.31038 | 35932 ft | 497 kts | 240° |
| 2026-04-17 07:28 | 27.26957 | -62.37705 | 35932 ft | 497 kts | 240° |
| 2026-04-17 07:28 | 27.23430 | -62.44328 | 35928 ft | 497 kts | 240° |
| 2026-04-17 07:29 | 27.19882 | -62.50981 | 35930 ft | 496 kts | 240° |
| 2026-04-17 07:29 | 27.16334 | -62.57624 | 35930 ft | 496 kts | 240° |
| 2026-04-17 07:30 | 27.12777 | -62.64273 | 35932 ft | 497 kts | 240° |
| 2026-04-17 07:30 | 27.09233 | -62.70888 | 35929 ft | 498 kts | 240° |
| 2026-04-17 07:31 | 27.05665 | -62.77537 | 35924 ft | 498 kts | 240° |
| 2026-04-17 07:31 | 27.02092 | -62.84187 | 35921 ft | 498 kts | 240° |
| 2026-04-17 07:32 | 26.98512 | -62.90840 | 35925 ft | 498 kts | 240° |
| 2026-04-17 07:32 | 26.94952 | -62.97445 | 35925 ft | 498 kts | 240° |
| 2026-04-17 07:33 | 26.91367 | -63.04086 | 35923 ft | 498 kts | 240° |
| 2026-04-17 07:33 | 26.87774 | -63.10731 | 35922 ft | 498 kts | 240° |
| 2026-04-17 07:34 | 26.84179 | -63.17371 | 35921 ft | 501 kts | 240° |
| 2026-04-17 07:34 | 26.80582 | -63.24006 | 35918 ft | 501 kts | 240° |
| 2026-04-17 07:35 | 26.76964 | -63.30667 | 35917 ft | 500 kts | 240° |
| 2026-04-17 07:35 | 26.73349 | -63.37314 | 35917 ft | 499 kts | 240° |
| 2026-04-17 07:36 | 26.69735 | -63.43949 | 35909 ft | 500 kts | 241° |
| 2026-04-17 07:36 | 26.66133 | -63.50555 | 35912 ft | 503 kts | 241° |
| 2026-04-17 07:37 | 26.62480 | -63.57243 | 35916 ft | 503 kts | 240° |
| 2026-04-17 07:37 | 26.58838 | -63.63898 | 35911 ft | 501 kts | 240° |
| 2026-04-17 07:38 | 26.55203 | -63.70532 | 35911 ft | 500 kts | 240° |
| 2026-04-17 07:38 | 26.51592 | -63.77112 | 35910 ft | 501 kts | 241° |
| 2026-04-17 07:39 | 26.47929 | -63.83780 | 35909 ft | 506 kts | 241° |
| 2026-04-17 07:39 | 26.44244 | -63.90477 | 35909 ft | 506 kts | 241° |
| 2026-04-17 07:40 | 26.40564 | -63.97150 | 35908 ft | 503 kts | 241° |
| 2026-04-17 07:40 | 26.36924 | -64.03744 | 35907 ft | 502 kts | 240° |
| 2026-04-17 07:41 | 26.33257 | -64.10378 | 35907 ft | 505 kts | 241° |
| 2026-04-17 07:41 | 26.29559 | -64.17062 | 35903 ft | 507 kts | 241° |
| 2026-04-17 07:42 | 26.25850 | -64.23751 | 35903 ft | 507 kts | 241° |
| 2026-04-17 07:42 | 26.22164 | -64.30387 | 35900 ft | 506 kts | 241° |
| 2026-04-17 07:43 | 26.18465 | -64.37039 | 35886 ft | 505 kts | 242° |
| 2026-04-17 07:43 | 26.14760 | -64.43694 | 35901 ft | 507 kts | 242° |
| 2026-04-17 07:44 | 26.11040 | -64.50365 | 35898 ft | 507 kts | 241° |
| 2026-04-17 07:44 | 26.07342 | -64.56987 | 35898 ft | 507 kts | 241° |
| 2026-04-17 07:45 | 26.03615 | -64.63651 | 35895 ft | 507 kts | 241° |
| 2026-04-17 07:45 | 25.99885 | -64.70309 | 35895 ft | 507 kts | 241° |
| 2026-04-17 07:46 | 25.96163 | -64.76944 | 35895 ft | 505 kts | 241° |
| 2026-04-17 07:46 | 25.92465 | -64.83526 | 35895 ft | 505 kts | 241° |
| 2026-04-17 07:47 | 25.88743 | -64.90144 | 35893 ft | 505 kts | 241° |
| 2026-04-17 07:47 | 25.85015 | -64.96761 | 35893 ft | 505 kts | 241° |
| 2026-04-17 07:48 | 25.81912 | -65.02263 | 35890 ft | 507 kts | 242° |
| 2026-04-17 07:48 | 25.78165 | -65.08898 | 35885 ft | 507 kts | 241° |
| 2026-04-17 07:49 | 25.73819 | -65.16578 | 35892 ft | 505 kts | 241° |
| 2026-04-17 07:49 | 25.70080 | -65.23178 | 35890 ft | 505 kts | 241° |
| 2026-04-17 07:50 | 25.66969 | -65.28663 | 35887 ft | 505 kts | 241° |
| 2026-04-17 07:50 | 25.63220 | -65.35262 | 35884 ft | 507 kts | 242° |
| 2026-04-17 07:51 | 25.58845 | -65.42953 | 35884 ft | 508 kts | 241° |
| 2026-04-17 07:51 | 25.55713 | -65.48450 | 35882 ft | 508 kts | 241° |
| 2026-04-17 07:52 | 25.51939 | -65.55065 | 35883 ft | 508 kts | 241° |
| 2026-04-17 07:52 | 25.48165 | -65.61671 | 35863 ft | 508 kts | 241° |
| 2026-04-17 07:53 | 25.43768 | -65.69357 | 35886 ft | 509 kts | 241° |
| 2026-04-17 07:53 | 25.40618 | -65.74855 | 35882 ft | 509 kts | 241° |
| 2026-04-17 07:54 | 25.36820 | -65.81474 | 35874 ft | 508 kts | 241° |
| 2026-04-17 07:54 | 25.32423 | -65.89126 | 35874 ft | 507 kts | 241° |
| 2026-04-17 07:55 | 25.29254 | -65.94633 | 35864 ft | 506 kts | 241° |
| 2026-04-17 07:55 | 25.25492 | -66.01165 | 35871 ft | 508 kts | 241° |
| 2026-04-17 07:56 | 25.21697 | -66.07743 | 35871 ft | 508 kts | 241° |
| 2026-04-17 07:56 | 25.17897 | -66.14321 | 35868 ft | 508 kts | 241° |
| 2026-04-17 07:57 | 25.14093 | -66.20896 | 35867 ft | 508 kts | 240° |
| 2026-04-17 07:57 | 25.10323 | -66.27404 | 35861 ft | 507 kts | 240° |
| 2026-04-17 07:58 | 25.06523 | -66.33955 | 35866 ft | 507 kts | 240° |
| 2026-04-17 07:58 | 25.02717 | -66.40506 | 35865 ft | 507 kts | 240° |
| 2026-04-17 07:59 | 24.98935 | -66.47009 | 35863 ft | 507 kts | 240° |
| 2026-04-17 07:59 | 24.95124 | -66.53552 | 35862 ft | 507 kts | 240° |
| 2026-04-17 08:00 | 24.91309 | -66.60092 | 35861 ft | 507 kts | 240° |
| 2026-04-17 08:00 | 24.87492 | -66.66626 | 35865 ft | 507 kts | 240° |
| 2026-04-17 08:01 | 24.83697 | -66.73115 | 35858 ft | 507 kts | 240° |
| 2026-04-17 08:01 | 24.79875 | -66.79641 | 35859 ft | 507 kts | 240° |
| 2026-04-17 08:02 | 24.76050 | -66.86163 | 35854 ft | 507 kts | 240° |
| 2026-04-17 08:02 | 24.72220 | -66.92686 | 35854 ft | 508 kts | 240° |
| 2026-04-17 08:03 | 24.68406 | -66.99172 | 35853 ft | 508 kts | 240° |
| 2026-04-17 08:03 | 24.64569 | -67.05687 | 35852 ft | 507 kts | 240° |
| 2026-04-17 08:04 | 24.60732 | -67.12193 | 35852 ft | 507 kts | 240° |
| 2026-04-17 08:04 | 24.56892 | -67.18698 | 35852 ft | 507 kts | 240° |
| 2026-04-17 08:05 | 24.53074 | -67.25155 | 35851 ft | 508 kts | 240° |
| 2026-04-17 08:05 | 24.49216 | -67.31673 | 35849 ft | 510 kts | 240° |
| 2026-04-17 08:06 | 24.45348 | -67.38198 | 35842 ft | 509 kts | 240° |
| 2026-04-17 08:06 | 24.41487 | -67.44701 | 35844 ft | 509 kts | 240° |
| 2026-04-17 08:07 | 24.37649 | -67.51159 | 35844 ft | 508 kts | 240° |
| 2026-04-17 08:07 | 24.33784 | -67.57653 | 35843 ft | 510 kts | 240° |
| 2026-04-17 08:08 | 24.29898 | -67.64175 | 35840 ft | 511 kts | 240° |
| 2026-04-17 08:08 | 24.26005 | -67.70698 | 35841 ft | 511 kts | 240° |
| 2026-04-17 08:09 | 24.22135 | -67.77175 | 35837 ft | 510 kts | 240° |
| 2026-04-17 08:09 | 24.18250 | -67.83666 | 35832 ft | 509 kts | 240° |
| 2026-04-17 08:10 | 24.14364 | -67.90152 | 35837 ft | 509 kts | 240° |
| 2026-04-17 08:10 | 24.10477 | -67.96632 | 35834 ft | 509 kts | 240° |
| 2026-04-17 08:11 | 24.06611 | -68.03068 | 35835 ft | 509 kts | 239° |
| 2026-04-17 08:11 | 24.02717 | -68.09542 | 35835 ft | 509 kts | 239° |
| 2026-04-17 08:12 | 23.98820 | -68.16013 | 35849 ft | 509 kts | 239° |
| 2026-04-17 08:12 | 23.94928 | -68.22466 | 35836 ft | 509 kts | 239° |
| 2026-04-17 08:13 | 23.90948 | -68.28828 | 35834 ft | 512 kts | 236° |
| 2026-04-17 08:14 | 23.84302 | -68.37992 | 35833 ft | 513 kts | 234° |
| 2026-04-17 08:14 | 23.79865 | -68.44096 | 35821 ft | 513 kts | 234° |
| 2026-04-17 08:15 | 23.75475 | -68.50238 | 35831 ft | 512 kts | 235° |
| 2026-04-17 08:15 | 23.71139 | -68.56335 | 35828 ft | 512 kts | 235° |
| 2026-04-17 08:16 | 23.66766 | -68.62483 | 35826 ft | 513 kts | 235° |
| 2026-04-17 08:16 | 23.62380 | -68.68635 | 35828 ft | 514 kts | 235° |
| 2026-04-17 08:17 | 23.58023 | -68.74736 | 35824 ft | 514 kts | 235° |
| 2026-04-17 08:17 | 23.53637 | -68.80879 | 35827 ft | 514 kts | 235° |
| 2026-04-17 08:18 | 23.49240 | -68.87015 | 35809 ft | 513 kts | 234° |
| 2026-04-17 08:18 | 23.44841 | -68.93149 | 35821 ft | 515 kts | 234° |
| 2026-04-17 08:19 | 23.40460 | -68.99251 | 35820 ft | 515 kts | 234° |
| 2026-04-17 08:19 | 23.36046 | -69.05395 | 35824 ft | 515 kts | 234° |
| 2026-04-17 08:20 | 23.31627 | -69.11536 | 35823 ft | 515 kts | 234° |
| 2026-04-17 08:20 | 23.27209 | -69.17671 | 35823 ft | 515 kts | 234° |
| 2026-04-17 08:21 | 23.22781 | -69.23811 | 35823 ft | 517 kts | 234° |
| 2026-04-17 08:21 | 23.18361 | -69.29933 | 35814 ft | 519 kts | 234° |
| 2026-04-17 08:22 | 23.13901 | -69.36104 | 35814 ft | 519 kts | 234° |
| 2026-04-17 08:22 | 23.09441 | -69.42265 | 35815 ft | 519 kts | 234° |
| 2026-04-17 08:23 | 23.04978 | -69.48424 | 35814 ft | 519 kts | 234° |
| 2026-04-17 08:23 | 23.00543 | -69.54537 | 35804 ft | 519 kts | 234° |
| 2026-04-17 08:24 | 22.96068 | -69.60698 | 35810 ft | 520 kts | 234° |
| 2026-04-17 08:24 | 22.91591 | -69.66855 | 35811 ft | 520 kts | 234° |
| 2026-04-17 08:25 | 22.87108 | -69.73012 | 35812 ft | 520 kts | 234° |
| 2026-04-17 08:25 | 22.82654 | -69.79122 | 35811 ft | 520 kts | 234° |
| 2026-04-17 08:26 | 22.78169 | -69.85267 | 35806 ft | 520 kts | 234° |
| 2026-04-17 08:26 | 22.73408 | -69.91191 | 35922 ft | 524 kts | 225° |
| 2026-04-17 08:26 | 22.70740 | -69.93879 | 36116 ft | 524 kts | 224° |
| 2026-04-17 08:27 | 22.68034 | -69.96516 | 36278 ft | 524 kts | 224° |
| 2026-04-17 08:27 | 22.65338 | -69.99094 | 36438 ft | 523 kts | 223° |
| 2026-04-17 08:27 | 22.62600 | -70.01692 | 36597 ft | 523 kts | 223° |
| 2026-04-17 08:27 | 22.59863 | -70.04284 | 36754 ft | 523 kts | 223° |
| 2026-04-17 08:28 | 22.57128 | -70.06876 | 36906 ft | 522 kts | 223° |
| 2026-04-17 08:28 | 22.54397 | -70.09468 | 37067 ft | 522 kts | 223° |
| 2026-04-17 08:28 | 22.51671 | -70.12059 | 37229 ft | 522 kts | 224° |
| 2026-04-17 08:28 | 22.48946 | -70.14651 | 37366 ft | 521 kts | 224° |
| 2026-04-17 08:29 | 22.46230 | -70.17235 | 37533 ft | 520 kts | 223° |
| 2026-04-17 08:29 | 22.43553 | -70.19780 | 37702 ft | 519 kts | 223° |
| 2026-04-17 08:29 | 22.40843 | -70.22357 | 37795 ft | 519 kts | 223° |
| 2026-04-17 08:30 | 22.35399 | -70.27528 | 37798 ft | 522 kts | 223° |
| 2026-04-17 08:30 | 22.29999 | -70.32743 | 37797 ft | 520 kts | 225° |
| 2026-04-17 08:31 | 22.24713 | -70.38062 | 37797 ft | 519 kts | 225° |
| 2026-04-17 08:31 | 22.19463 | -70.43355 | 37795 ft | 519 kts | 225° |
| 2026-04-17 08:32 | 22.14175 | -70.48646 | 37789 ft | 519 kts | 225° |
| 2026-04-17 08:32 | 22.08872 | -70.53929 | 37789 ft | 519 kts | 225° |
| 2026-04-17 08:33 | 22.03563 | -70.59207 | 37789 ft | 520 kts | 225° |
| 2026-04-17 08:33 | 21.98280 | -70.64456 | 37789 ft | 520 kts | 225° |
| 2026-04-17 08:34 | 21.92958 | -70.69739 | 37785 ft | 520 kts | 225° |
| 2026-04-17 08:34 | 21.87639 | -70.75014 | 37783 ft | 520 kts | 225° |
| 2026-04-17 08:35 | 21.82324 | -70.80280 | 37784 ft | 519 kts | 225° |
| 2026-04-17 08:35 | 21.76859 | -70.85302 | 37781 ft | 521 kts | 220° |
| 2026-04-17 08:36 | 21.71160 | -70.90111 | 37778 ft | 521 kts | 220° |
| 2026-04-17 08:36 | 21.65458 | -70.94945 | 37780 ft | 522 kts | 220° |
| 2026-04-17 08:37 | 21.59790 | -70.99824 | 37777 ft | 522 kts | 220° |
| 2026-04-17 08:37 | 21.54178 | -71.04682 | 37778 ft | 522 kts | 220° |
| 2026-04-17 08:38 | 21.48527 | -71.09573 | 37780 ft | 522 kts | 220° |
| 2026-04-17 08:38 | 21.43038 | -71.14642 | 37778 ft | 520 kts | 226° |
| 2026-04-17 08:39 | 21.37928 | -71.20126 | 37773 ft | 519 kts | 228° |
| 2026-04-17 08:39 | 21.32925 | -71.25631 | 37773 ft | 518 kts | 228° |
| 2026-04-17 08:40 | 21.27899 | -71.31168 | 37773 ft | 518 kts | 227° |
| 2026-04-17 08:40 | 21.22868 | -71.36690 | 37770 ft | 518 kts | 227° |
| 2026-04-17 08:41 | 21.17862 | -71.42171 | 37769 ft | 518 kts | 227° |
| 2026-04-17 08:41 | 21.12822 | -71.47679 | 37767 ft | 518 kts | 227° |
| 2026-04-17 08:42 | 21.07777 | -71.53189 | 37769 ft | 518 kts | 227° |
| 2026-04-17 08:42 | 21.02739 | -71.58685 | 37773 ft | 518 kts | 227° |
| 2026-04-17 08:43 | 20.97685 | -71.64197 | 37755 ft | 519 kts | 227° |
| 2026-04-17 08:43 | 20.92657 | -71.69671 | 37770 ft | 519 kts | 227° |
| 2026-04-17 08:44 | 20.87595 | -71.75174 | 37767 ft | 519 kts | 227° |
| 2026-04-17 08:44 | 20.82528 | -71.80678 | 37753 ft | 519 kts | 227° |
| 2026-04-17 08:45 | 20.77464 | -71.86175 | 37756 ft | 519 kts | 227° |
| 2026-04-17 08:45 | 20.72437 | -71.91626 | 37736 ft | 518 kts | 227° |
| 2026-04-17 08:46 | 20.67367 | -71.97118 | 37759 ft | 520 kts | 227° |
| 2026-04-17 08:46 | 20.62283 | -72.02620 | 37759 ft | 520 kts | 227° |
| 2026-04-17 08:47 | 20.57199 | -72.08116 | 37759 ft | 520 kts | 227° |
| 2026-04-17 08:47 | 20.52144 | -72.13575 | 37750 ft | 520 kts | 227° |
| 2026-04-17 08:48 | 20.47056 | -72.19065 | 37751 ft | 520 kts | 227° |
| 2026-04-17 08:48 | 20.41964 | -72.24553 | 37749 ft | 520 kts | 227° |
| 2026-04-17 08:49 | 20.37102 | -72.30248 | 37745 ft | 519 kts | 233° |
| 2026-04-17 08:49 | 20.32560 | -72.36167 | 37742 ft | 519 kts | 234° |
| 2026-04-17 08:50 | 20.27968 | -72.42117 | 37748 ft | 520 kts | 233° |
| 2026-04-17 08:50 | 20.23323 | -72.48015 | 37746 ft | 520 kts | 232° |
| 2026-04-17 08:51 | 20.18683 | -72.53850 | 37746 ft | 520 kts | 232° |
| 2026-04-17 08:51 | 20.14006 | -72.59717 | 37751 ft | 520 kts | 232° |
| 2026-04-17 08:52 | 20.09324 | -72.65584 | 37745 ft | 521 kts | 232° |
| 2026-04-17 08:52 | 20.04328 | -72.71199 | 37743 ft | 524 kts | 228° |
| 2026-04-17 08:53 | 19.99202 | -72.76634 | 37750 ft | 524 kts | 228° |
| 2026-04-17 08:53 | 19.94065 | -72.82121 | 37747 ft | 523 kts | 228° |
| 2026-04-17 08:54 | 19.88962 | -72.87633 | 37749 ft | 523 kts | 228° |
| 2026-04-17 08:54 | 19.83894 | -72.93167 | 37749 ft | 522 kts | 230° |
| 2026-04-17 08:55 | 19.78957 | -72.98834 | 37741 ft | 523 kts | 231° |
| 2026-04-17 08:55 | 19.74028 | -73.04449 | 37740 ft | 524 kts | 228° |
| 2026-04-17 08:56 | 19.68825 | -73.09893 | 37738 ft | 525 kts | 227° |
| 2026-04-17 08:56 | 19.63607 | -73.15314 | 37737 ft | 525 kts | 229° |
| 2026-04-17 08:57 | 19.58611 | -73.20937 | 37736 ft | 524 kts | 230° |
| 2026-04-17 08:57 | 19.53710 | -73.26579 | 37732 ft | 523 kts | 230° |
| 2026-04-17 08:58 | 19.48756 | -73.32236 | 37727 ft | 524 kts | 230° |
| 2026-04-17 08:58 | 19.43703 | -73.37823 | 37731 ft | 526 kts | 229° |
| 2026-04-17 08:59 | 19.38631 | -73.43335 | 37726 ft | 526 kts | 229° |
| 2026-04-17 08:59 | 19.33533 | -73.48890 | 37726 ft | 526 kts | 229° |
| 2026-04-17 09:00 | 19.28444 | -73.54442 | 37724 ft | 525 kts | 229° |
| 2026-04-17 09:00 | 19.23282 | -73.59930 | 37728 ft | 526 kts | 228° |
| 2026-04-17 09:01 | 19.18102 | -73.65397 | 37703 ft | 526 kts | 228° |
| 2026-04-17 09:01 | 19.12961 | -73.70839 | 37721 ft | 526 kts | 229° |
| 2026-04-17 09:02 | 19.07794 | -73.76318 | 37721 ft | 526 kts | 229° |
| 2026-04-17 09:02 | 19.02622 | -73.81802 | 37719 ft | 526 kts | 229° |
| 2026-04-17 09:03 | 18.97486 | -73.87242 | 37719 ft | 526 kts | 229° |
| 2026-04-17 09:03 | 18.92315 | -73.92715 | 37720 ft | 526 kts | 229° |
| 2026-04-17 09:04 | 18.87300 | -73.98332 | 37722 ft | 525 kts | 231° |
| 2026-04-17 09:04 | 18.82433 | -74.04066 | 37727 ft | 524 kts | 232° |
| 2026-04-17 09:05 | 18.77560 | -74.09732 | 37953 ft | 525 kts | 230° |
| 2026-04-17 09:05 | 18.75026 | -74.12510 | 38085 ft | 526 kts | 229° |
| 2026-04-17 09:05 | 18.72454 | -74.15260 | 38194 ft | 526 kts | 229° |
| 2026-04-17 09:05 | 18.69873 | -74.17999 | 38343 ft | 526 kts | 229° |
| 2026-04-17 09:06 | 18.67297 | -74.20737 | 38479 ft | 526 kts | 229° |
| 2026-04-17 09:06 | 18.64729 | -74.23479 | 38586 ft | 525 kts | 229° |
| 2026-04-17 09:06 | 18.62169 | -74.26224 | 38700 ft | 525 kts | 229° |
| 2026-04-17 09:07 | 18.57083 | -74.31697 | 38728 ft | 526 kts | 229° |
| 2026-04-17 09:07 | 18.51978 | -74.37193 | 38716 ft | 524 kts | 229° |
| 2026-04-17 09:08 | 18.46888 | -74.42669 | 38725 ft | 522 kts | 229° |
| 2026-04-17 09:08 | 18.41811 | -74.48127 | 38724 ft | 521 kts | 229° |
| 2026-04-17 09:09 | 18.36767 | -74.53543 | 38718 ft | 521 kts | 229° |
| 2026-04-17 09:09 | 18.31686 | -74.58994 | 38718 ft | 521 kts | 229° |
| 2026-04-17 09:10 | 18.24067 | -74.67165 | 38718 ft | 521 kts | 230° |
| 2026-04-17 09:10 | 18.19318 | -74.72819 | 38718 ft | 518 kts | 234° |
| 2026-04-17 09:11 | 18.14702 | -74.78651 | 38714 ft | 518 kts | 234° |
| 2026-04-17 09:11 | 18.10056 | -74.84447 | 38713 ft | 519 kts | 233° |
| 2026-04-17 09:12 | 18.05360 | -74.90214 | 38715 ft | 519 kts | 233° |
| 2026-04-17 09:12 | 18.00683 | -74.95922 | 38715 ft | 519 kts | 233° |
| 2026-04-17 09:13 | 17.95971 | -75.01666 | 38712 ft | 519 kts | 233° |
| 2026-04-17 09:13 | 17.91259 | -75.07409 | 38702 ft | 519 kts | 233° |
| 2026-04-17 09:14 | 17.86556 | -75.13137 | 38715 ft | 517 kts | 233° |
| 2026-04-17 09:14 | 17.81895 | -75.18809 | 38712 ft | 516 kts | 233° |
| 2026-04-17 09:15 | 17.77203 | -75.24516 | 38715 ft | 516 kts | 233° |
| 2026-04-17 09:15 | 17.72510 | -75.30218 | 38715 ft | 516 kts | 233° |
| 2026-04-17 09:16 | 17.67813 | -75.35920 | 38715 ft | 516 kts | 233° |
| 2026-04-17 09:16 | 17.63150 | -75.41576 | 38715 ft | 516 kts | 233° |
| 2026-04-17 09:17 | 17.58454 | -75.47265 | 38712 ft | 516 kts | 233° |
| 2026-04-17 09:17 | 17.53766 | -75.52941 | 38712 ft | 515 kts | 233° |
| 2026-04-17 09:18 | 17.49077 | -75.58614 | 38712 ft | 515 kts | 233° |
| 2026-04-17 09:18 | 17.44414 | -75.64249 | 38712 ft | 515 kts | 233° |
| 2026-04-17 09:19 | 17.39723 | -75.69915 | 38709 ft | 515 kts | 233° |
| 2026-04-17 09:19 | 17.35027 | -75.75582 | 38709 ft | 515 kts | 233° |
| 2026-04-17 09:20 | 17.30330 | -75.81244 | 38708 ft | 516 kts | 233° |
| 2026-04-17 09:20 | 17.25656 | -75.86881 | 38709 ft | 516 kts | 233° |
| 2026-04-17 09:21 | 17.20942 | -75.92550 | 38708 ft | 516 kts | 233° |
| 2026-04-17 09:21 | 17.16224 | -75.98217 | 38709 ft | 516 kts | 233° |
| 2026-04-17 09:22 | 17.11510 | -76.03879 | 38707 ft | 516 kts | 233° |
| 2026-04-17 09:22 | 17.06826 | -76.09501 | 38707 ft | 516 kts | 233° |
| 2026-04-17 09:23 | 17.02114 | -76.15151 | 38694 ft | 516 kts | 233° |
| 2026-04-17 09:23 | 16.97395 | -76.20806 | 38707 ft | 516 kts | 233° |
| 2026-04-17 09:24 | 16.92673 | -76.26459 | 38702 ft | 516 kts | 233° |
| 2026-04-17 09:24 | 16.87947 | -76.32109 | 38708 ft | 516 kts | 233° |
| 2026-04-17 09:25 | 16.83243 | -76.37709 | 38705 ft | 516 kts | 233° |
| 2026-04-17 09:25 | 16.78516 | -76.43345 | 38709 ft | 516 kts | 233° |
| 2026-04-17 09:26 | 16.73792 | -76.48985 | 38706 ft | 516 kts | 233° |
| 2026-04-17 09:26 | 16.69102 | -76.54583 | 38703 ft | 516 kts | 233° |
| 2026-04-17 09:27 | 16.64380 | -76.60214 | 38709 ft | 516 kts | 233° |
| 2026-04-17 09:27 | 16.59659 | -76.65843 | 38701 ft | 516 kts | 233° |
| 2026-04-17 09:28 | 16.54929 | -76.71462 | 38704 ft | 515 kts | 233° |
| 2026-04-17 09:28 | 16.50206 | -76.77070 | 38704 ft | 515 kts | 233° |
| 2026-04-17 09:29 | 16.45514 | -76.82640 | 38702 ft | 515 kts | 233° |
| 2026-04-17 09:29 | 16.40789 | -76.88247 | 38696 ft | 515 kts | 233° |
| 2026-04-17 09:30 | 16.36071 | -76.93839 | 38700 ft | 513 kts | 233° |
| 2026-04-17 09:30 | 16.31393 | -76.99380 | 38704 ft | 513 kts | 233° |
| 2026-04-17 09:31 | 16.26684 | -77.04954 | 38703 ft | 512 kts | 233° |
| 2026-04-17 09:31 | 16.21985 | -77.10511 | 38704 ft | 511 kts | 233° |
| 2026-04-17 09:32 | 16.17286 | -77.16064 | 38702 ft | 511 kts | 233° |
| 2026-04-17 09:32 | 16.12615 | -77.21580 | 38702 ft | 511 kts | 233° |
| 2026-04-17 09:33 | 16.07918 | -77.27122 | 38705 ft | 510 kts | 233° |
| 2026-04-17 09:33 | 16.03229 | -77.32650 | 38705 ft | 509 kts | 233° |
| 2026-04-17 09:34 | 15.98546 | -77.38167 | 38702 ft | 509 kts | 233° |
| 2026-04-17 09:34 | 15.93895 | -77.43648 | 38702 ft | 508 kts | 233° |
| 2026-04-17 09:35 | 15.89224 | -77.49138 | 38703 ft | 507 kts | 233° |
| 2026-04-17 09:35 | 15.84547 | -77.54633 | 38702 ft | 507 kts | 233° |
| 2026-04-17 09:36 | 15.79876 | -77.60119 | 38696 ft | 507 kts | 232° |
| 2026-04-17 09:36 | 15.75238 | -77.65560 | 38701 ft | 505 kts | 232° |
| 2026-04-17 09:37 | 15.70584 | -77.71018 | 38711 ft | 505 kts | 232° |
| 2026-04-17 09:37 | 15.65930 | -77.76471 | 38703 ft | 505 kts | 232° |
| 2026-04-17 09:38 | 15.61278 | -77.81918 | 38702 ft | 504 kts | 232° |
| 2026-04-17 09:38 | 15.56662 | -77.87319 | 38703 ft | 503 kts | 232° |
| 2026-04-17 09:39 | 15.52014 | -77.92753 | 38698 ft | 503 kts | 232° |
| 2026-04-17 09:39 | 15.47368 | -77.98182 | 38695 ft | 503 kts | 232° |
| 2026-04-17 09:40 | 15.42725 | -78.03602 | 38708 ft | 502 kts | 232° |
| 2026-04-17 09:40 | 15.38114 | -78.08981 | 38693 ft | 502 kts | 232° |
| 2026-04-17 09:41 | 15.33473 | -78.14392 | 38699 ft | 502 kts | 232° |
| 2026-04-17 09:41 | 15.28832 | -78.19797 | 38708 ft | 502 kts | 232° |
| 2026-04-17 09:42 | 15.24197 | -78.25192 | 38690 ft | 501 kts | 232° |
| 2026-04-17 09:42 | 15.19594 | -78.30547 | 38707 ft | 501 kts | 232° |
| 2026-04-17 09:43 | 15.14960 | -78.35933 | 38704 ft | 501 kts | 232° |
| 2026-04-17 09:43 | 15.10321 | -78.41322 | 38688 ft | 501 kts | 232° |
| 2026-04-17 09:44 | 15.05714 | -78.46670 | 38708 ft | 501 kts | 232° |
| 2026-04-17 09:44 | 15.01074 | -78.52052 | 38698 ft | 501 kts | 232° |
| 2026-04-17 09:45 | 14.96570 | -78.57541 | 38701 ft | 498 kts | 236° |
| 2026-04-17 09:45 | 14.92402 | -78.63244 | 38701 ft | 497 kts | 237° |
| 2026-04-17 09:46 | 14.88246 | -78.68957 | 38697 ft | 497 kts | 237° |
| 2026-04-17 09:46 | 14.84068 | -78.74590 | 38702 ft | 497 kts | 236° |
| 2026-04-17 09:47 | 14.79835 | -78.80238 | 38699 ft | 497 kts | 236° |
| 2026-04-17 09:47 | 14.75599 | -78.85877 | 38699 ft | 497 kts | 236° |
| 2026-04-17 09:48 | 14.71392 | -78.91476 | 38702 ft | 497 kts | 236° |
| 2026-04-17 09:48 | 14.67153 | -78.97117 | 38701 ft | 497 kts | 236° |
| 2026-04-17 09:49 | 14.62919 | -79.02749 | 38701 ft | 496 kts | 236° |
| 2026-04-17 09:49 | 14.58685 | -79.08375 | 38699 ft | 496 kts | 236° |
| 2026-04-17 09:50 | 14.54456 | -79.13992 | 38702 ft | 495 kts | 236° |
| 2026-04-17 09:50 | 14.50255 | -79.19567 | 38702 ft | 495 kts | 236° |
| 2026-04-17 09:51 | 14.46022 | -79.25181 | 38704 ft | 495 kts | 236° |
| 2026-04-17 09:51 | 14.41788 | -79.30792 | 38704 ft | 495 kts | 236° |
| 2026-04-17 09:52 | 14.37554 | -79.36401 | 38701 ft | 495 kts | 236° |
| 2026-04-17 09:52 | 14.33347 | -79.41969 | 38701 ft | 495 kts | 236° |
| 2026-04-17 09:53 | 14.29109 | -79.47573 | 38704 ft | 495 kts | 236° |
| 2026-04-17 09:53 | 14.24871 | -79.53174 | 38704 ft | 495 kts | 236° |
| 2026-04-17 09:54 | 14.20631 | -79.58774 | 38704 ft | 495 kts | 236° |
| 2026-04-17 09:54 | 14.16421 | -79.64332 | 38704 ft | 495 kts | 236° |
| 2026-04-17 09:55 | 14.12177 | -79.69929 | 38701 ft | 495 kts | 236° |
| 2026-04-17 09:55 | 14.07935 | -79.75520 | 38701 ft | 495 kts | 236° |
| 2026-04-17 09:56 | 14.03691 | -79.81110 | 38700 ft | 495 kts | 236° |
| 2026-04-17 09:56 | 13.99478 | -79.86656 | 38700 ft | 495 kts | 236° |
| 2026-04-17 09:57 | 13.95235 | -79.92237 | 38705 ft | 495 kts | 236° |
| 2026-04-17 09:57 | 13.90994 | -79.97812 | 38706 ft | 495 kts | 236° |
| 2026-04-17 09:58 | 13.86749 | -80.03389 | 38707 ft | 495 kts | 236° |
| 2026-04-17 09:58 | 13.82530 | -80.08928 | 38702 ft | 495 kts | 236° |
| 2026-04-17 09:59 | 13.78281 | -80.14502 | 38704 ft | 495 kts | 236° |
| 2026-04-17 09:59 | 13.74036 | -80.20068 | 38705 ft | 494 kts | 236° |
| 2026-04-17 10:00 | 13.69792 | -80.25627 | 38710 ft | 494 kts | 236° |
| 2026-04-17 10:00 | 13.65582 | -80.31141 | 38706 ft | 494 kts | 236° |
| 2026-04-17 10:01 | 13.61336 | -80.36697 | 38707 ft | 494 kts | 236° |
| 2026-04-17 10:01 | 13.57085 | -80.42256 | 38707 ft | 495 kts | 236° |
| 2026-04-17 10:02 | 13.52831 | -80.47815 | 38710 ft | 495 kts | 236° |
| 2026-04-17 10:02 | 13.48607 | -80.53331 | 38710 ft | 495 kts | 236° |
| 2026-04-17 10:03 | 13.44352 | -80.58885 | 38707 ft | 494 kts | 236° |
| 2026-04-17 10:03 | 13.40098 | -80.64434 | 38707 ft | 494 kts | 236° |
| 2026-04-17 10:04 | 13.35842 | -80.69980 | 38710 ft | 494 kts | 236° |
| 2026-04-17 10:04 | 13.31615 | -80.75487 | 38708 ft | 494 kts | 236° |
| 2026-04-17 10:05 | 13.27354 | -80.81035 | 38707 ft | 495 kts | 236° |
| 2026-04-17 10:05 | 13.23088 | -80.86586 | 38707 ft | 495 kts | 236° |
| 2026-04-17 10:06 | 13.18820 | -80.92134 | 38701 ft | 495 kts | 236° |
| 2026-04-17 10:06 | 13.14576 | -80.97648 | 38707 ft | 496 kts | 236° |
| 2026-04-17 10:07 | 13.10303 | -81.03197 | 38707 ft | 496 kts | 236° |
| 2026-04-17 10:07 | 13.06025 | -81.08748 | 38707 ft | 496 kts | 236° |
| 2026-04-17 10:08 | 13.01750 | -81.14294 | 38707 ft | 496 kts | 236° |
| 2026-04-17 10:08 | 12.97497 | -81.19806 | 38705 ft | 496 kts | 236° |
| 2026-04-17 10:09 | 12.93218 | -81.25348 | 38707 ft | 496 kts | 236° |
| 2026-04-17 10:09 | 12.88938 | -81.30890 | 38706 ft | 496 kts | 236° |
| 2026-04-17 10:10 | 12.84689 | -81.36385 | 38707 ft | 495 kts | 236° |
| 2026-04-17 10:11 | 12.78276 | -81.44676 | 38707 ft | 495 kts | 236° |
| 2026-04-17 10:11 | 12.73999 | -81.50202 | 38707 ft | 495 kts | 236° |
| 2026-04-17 10:12 | 12.69721 | -81.55725 | 38707 ft | 495 kts | 236° |
| 2026-04-17 10:12 | 12.65471 | -81.61209 | 38719 ft | 495 kts | 236° |
| 2026-04-17 10:13 | 12.61191 | -81.66728 | 38721 ft | 494 kts | 235° |
| 2026-04-17 10:13 | 12.56716 | -81.72077 | 38725 ft | 495 kts | 230° |
| 2026-04-17 10:14 | 12.51929 | -81.77149 | 38721 ft | 496 kts | 229° |
| 2026-04-17 10:14 | 12.47122 | -81.82139 | 38717 ft | 496 kts | 229° |
| 2026-04-17 10:15 | 12.42278 | -81.87160 | 38709 ft | 496 kts | 229° |
| 2026-04-17 10:15 | 12.37439 | -81.92186 | 38713 ft | 496 kts | 229° |
| 2026-04-17 10:16 | 12.32601 | -81.97216 | 38709 ft | 496 kts | 229° |
| 2026-04-17 10:16 | 12.27799 | -82.02206 | 38710 ft | 496 kts | 229° |
| 2026-04-17 10:17 | 12.22965 | -82.07226 | 38708 ft | 495 kts | 229° |
| 2026-04-17 10:17 | 12.18134 | -82.12241 | 38711 ft | 495 kts | 229° |
| 2026-04-17 10:18 | 12.13305 | -82.17251 | 38711 ft | 495 kts | 229° |
| 2026-04-17 10:18 | 12.08505 | -82.22226 | 38713 ft | 495 kts | 229° |
| 2026-04-17 10:19 | 12.03672 | -82.27235 | 38704 ft | 495 kts | 229° |
| 2026-04-17 10:19 | 11.98837 | -82.32242 | 38711 ft | 495 kts | 229° |
| 2026-04-17 10:20 | 11.94005 | -82.37245 | 38709 ft | 495 kts | 229° |
| 2026-04-17 10:20 | 11.89200 | -82.42216 | 38710 ft | 495 kts | 229° |
| 2026-04-17 10:21 | 11.84362 | -82.47218 | 38708 ft | 495 kts | 229° |
| 2026-04-17 10:21 | 11.79522 | -82.52219 | 38710 ft | 495 kts | 229° |
| 2026-04-17 10:22 | 11.74684 | -82.57217 | 38713 ft | 495 kts | 229° |
| 2026-04-17 10:22 | 11.69875 | -82.62181 | 38712 ft | 495 kts | 229° |
| 2026-04-17 10:23 | 11.65037 | -82.67172 | 38711 ft | 495 kts | 229° |
| 2026-04-17 10:23 | 11.60196 | -82.72166 | 38711 ft | 495 kts | 229° |
| 2026-04-17 10:24 | 11.55334 | -82.77142 | 38711 ft | 496 kts | 228° |
| 2026-04-17 10:24 | 11.50477 | -82.82073 | 38710 ft | 496 kts | 227° |
| 2026-04-17 10:25 | 11.45596 | -82.87029 | 38711 ft | 495 kts | 227° |
| 2026-04-17 10:25 | 11.40718 | -82.91988 | 38710 ft | 495 kts | 227° |
| 2026-04-17 10:26 | 11.35844 | -82.96944 | 38712 ft | 495 kts | 227° |
| 2026-04-17 10:26 | 11.31004 | -83.01863 | 38713 ft | 495 kts | 227° |
| 2026-04-17 10:27 | 11.26125 | -83.06818 | 38708 ft | 495 kts | 227° |
| 2026-04-17 10:27 | 11.21249 | -83.11768 | 38707 ft | 495 kts | 227° |
| 2026-04-17 10:28 | 11.16366 | -83.16722 | 38713 ft | 495 kts | 227° |
| 2026-04-17 10:28 | 11.11527 | -83.21628 | 38711 ft | 494 kts | 227° |
| 2026-04-17 10:29 | 11.06661 | -83.26561 | 38709 ft | 493 kts | 227° |
| 2026-04-17 10:29 | 11.01800 | -83.31486 | 38711 ft | 493 kts | 227° |
| 2026-04-17 10:30 | 10.96934 | -83.36414 | 38715 ft | 493 kts | 227° |
| 2026-04-17 10:30 | 10.92104 | -83.41302 | 38714 ft | 493 kts | 227° |
| 2026-04-17 10:31 | 10.87239 | -83.46223 | 38713 ft | 493 kts | 227° |
| 2026-04-17 10:31 | 10.82373 | -83.51144 | 38715 ft | 493 kts | 227° |
| 2026-04-17 10:32 | 10.77504 | -83.56064 | 38713 ft | 493 kts | 226° |
| 2026-04-17 10:32 | 10.75272 | -83.58688 | 38716 ft | 489 kts | 238° |
| 2026-04-17 10:32 | 10.73468 | -83.61550 | 38718 ft | 487 kts | 240° |
| 2026-04-17 10:33 | 10.69993 | -83.67472 | 38715 ft | 488 kts | 241° |
| 2026-04-17 10:33 | 10.66544 | -83.73416 | 38715 ft | 488 kts | 241° |
| 2026-04-17 10:34 | 10.63101 | -83.79359 | 38718 ft | 488 kts | 241° |
| 2026-04-17 10:34 | 10.59681 | -83.85261 | 38718 ft | 488 kts | 241° |
| 2026-04-17 10:35 | 10.56237 | -83.91202 | 38721 ft | 488 kts | 241° |
| 2026-04-17 10:35 | 10.52795 | -83.97138 | 38720 ft | 487 kts | 241° |
| 2026-04-17 10:36 | 10.49353 | -84.03069 | 38729 ft | 487 kts | 241° |
| 2026-04-17 10:36 | 10.45933 | -84.08958 | 38731 ft | 487 kts | 241° |
| 2026-04-17 10:37 | 10.42489 | -84.14887 | 38734 ft | 487 kts | 241° |
| 2026-04-17 10:37 | 10.39044 | -84.20815 | 38731 ft | 487 kts | 241° |
| 2026-04-17 10:38 | 10.35598 | -84.26741 | 38747 ft | 487 kts | 240° |
| 2026-04-17 10:38 | 10.32173 | -84.32627 | 38751 ft | 487 kts | 240° |
| 2026-04-17 10:39 | 10.28727 | -84.38546 | 38743 ft | 487 kts | 240° |
| 2026-04-17 10:39 | 10.25282 | -84.44462 | 38743 ft | 487 kts | 240° |
| 2026-04-17 10:40 | 10.21834 | -84.50378 | 38743 ft | 487 kts | 240° |
| 2026-04-17 10:40 | 10.18385 | -84.56294 | 38725 ft | 487 kts | 240° |
| 2026-04-17 10:41 | 10.14330 | -84.61697 | 38728 ft | 489 kts | 218° |
| 2026-04-17 10:41 | 10.11437 | -84.63487 | 38726 ft | 488 kts | 203° |
| 2026-04-17 10:41 | 10.08177 | -84.64431 | 38715 ft | 489 kts | 188° |
| 2026-04-17 10:41 | 10.04776 | -84.64462 | 38714 ft | 491 kts | 172° |
| 2026-04-17 10:42 | 10.01480 | -84.63577 | 38711 ft | 492 kts | 156° |
| 2026-04-17 10:42 | 9.98533 | -84.61839 | 38712 ft | 492 kts | 141° |
| 2026-04-17 10:42 | 9.96134 | -84.59364 | 38711 ft | 493 kts | 125° |
| 2026-04-17 10:42 | 9.94484 | -84.56384 | 38713 ft | 493 kts | 110° |
| 2026-04-17 10:43 | 9.93654 | -84.53031 | 38690 ft | 492 kts | 95° |
| 2026-04-17 10:43 | 9.93728 | -84.49577 | 38738 ft | 490 kts | 79° |
| 2026-04-17 10:43 | 9.94701 | -84.46277 | 38739 ft | 489 kts | 63° |
| 2026-04-17 10:43 | 9.96498 | -84.43369 | 38737 ft | 487 kts | 48° |
| 2026-04-17 10:44 | 9.98988 | -84.41060 | 38737 ft | 485 kts | 32° |
| 2026-04-17 10:44 | 10.01979 | -84.39520 | 38738 ft | 483 kts | 17° |
| 2026-04-17 10:44 | 10.05265 | -84.38853 | 38739 ft | 482 kts | 1° |
| 2026-04-17 10:44 | 10.08593 | -84.39109 | 38745 ft | 481 kts | 346° |
| 2026-04-17 10:45 | 10.11682 | -84.40245 | 38744 ft | 480 kts | 330° |
| 2026-04-17 10:45 | 10.14388 | -84.42206 | 38744 ft | 479 kts | 315° |
| 2026-04-17 10:45 | 10.16465 | -84.44835 | 38744 ft | 479 kts | 300° |
| 2026-04-17 10:45 | 10.17760 | -84.47934 | 38741 ft | 478 kts | 284° |
| 2026-04-17 10:46 | 10.18360 | -84.51250 | 38742 ft | 478 kts | 278° |
| 2026-04-17 10:46 | 10.18149 | -84.57961 | 38727 ft | 482 kts | 253° |
| 2026-04-17 10:46 | 10.16786 | -84.61064 | 38727 ft | 483 kts | 238° |
| 2026-04-17 10:47 | 10.14677 | -84.63656 | 38729 ft | 485 kts | 222° |
| 2026-04-17 10:47 | 10.11913 | -84.65623 | 38729 ft | 487 kts | 207° |
| 2026-04-17 10:47 | 10.08724 | -84.66771 | 38727 ft | 489 kts | 191° |
| 2026-04-17 10:47 | 10.05337 | -84.67021 | 38694 ft | 490 kts | 175° |
| 2026-04-17 10:48 | 10.02002 | -84.66347 | 38716 ft | 490 kts | 160° |
| 2026-04-17 10:48 | 9.98962 | -84.64799 | 38715 ft | 492 kts | 144° |
| 2026-04-17 10:48 | 9.96422 | -84.62481 | 38716 ft | 493 kts | 129° |
| 2026-04-17 10:48 | 9.94570 | -84.59558 | 38717 ft | 494 kts | 114° |
| 2026-04-17 10:49 | 9.93552 | -84.56294 | 38690 ft | 493 kts | 98° |
| 2026-04-17 10:49 | 9.93412 | -84.52835 | 38690 ft | 491 kts | 83° |
| 2026-04-17 10:49 | 9.94178 | -84.49478 | 38737 ft | 489 kts | 67° |
| 2026-04-17 10:49 | 9.95788 | -84.46460 | 38736 ft | 488 kts | 51° |
| 2026-04-17 10:50 | 9.98129 | -84.43994 | 38740 ft | 486 kts | 36° |
| 2026-04-17 10:50 | 10.01027 | -84.42259 | 38739 ft | 484 kts | 21° |
| 2026-04-17 10:50 | 10.04257 | -84.41383 | 38741 ft | 482 kts | 5° |
| 2026-04-17 10:50 | 10.07595 | -84.41421 | 38739 ft | 480 kts | 349° |
| 2026-04-17 10:51 | 10.10792 | -84.42373 | 38746 ft | 480 kts | 334° |
| 2026-04-17 10:51 | 10.13574 | -84.44136 | 38746 ft | 479 kts | 319° |
| 2026-04-17 10:51 | 10.15610 | -84.46336 | 38745 ft | 478 kts | 305° |
| 2026-04-17 10:51 | 10.17179 | -84.49295 | 38749 ft | 477 kts | 290° |
| 2026-04-17 10:52 | 10.18149 | -84.52499 | 38655 ft | 474 kts | 283° |
| 2026-04-17 10:52 | 10.18507 | -84.55796 | 38007 ft | 467 kts | 269° |
| 2026-04-17 10:52 | 10.18015 | -84.59029 | 36919 ft | 464 kts | 254° |
| 2026-04-17 10:52 | 10.16671 | -84.62001 | 35728 ft | 466 kts | 238° |
| 2026-04-17 10:53 | 10.14558 | -84.64501 | 34536 ft | 470 kts | 223° |
| 2026-04-17 10:53 | 10.11862 | -84.66328 | 33230 ft | 477 kts | 206° |
| 2026-04-17 10:53 | 10.08698 | -84.67355 | 31983 ft | 478 kts | 188° |
| 2026-04-17 10:53 | 10.05426 | -84.67422 | 31181 ft | 467 kts | 171° |
| 2026-04-17 10:54 | 10.02326 | -84.66600 | 30187 ft | 458 kts | 153° |
| 2026-04-17 10:54 | 9.99632 | -84.64939 | 28968 ft | 449 kts | 135° |
| 2026-04-17 10:54 | 9.97555 | -84.62661 | 28187 ft | 431 kts | 126° |
| 2026-04-17 10:54 | 9.95601 | -84.60428 | 27566 ft | 417 kts | 130° |
| 2026-04-17 10:55 | 9.93584 | -84.58351 | 26638 ft | 411 kts | 132° |
| 2026-04-17 10:55 | 9.91712 | -84.56231 | 25444 ft | 409 kts | 122° |
| 2026-04-17 10:55 | 9.90369 | -84.53694 | 24114 ft | 410 kts | 110° |
| 2026-04-17 10:55 | 9.89429 | -84.50961 | 22695 ft | 411 kts | 105° |
| 2026-04-17 10:56 | 9.88903 | -84.48120 | 21200 ft | 410 kts | 93° |
| 2026-04-17 10:56 | 9.88968 | -84.45246 | 19781 ft | 407 kts | 81° |
| 2026-04-17 10:56 | 9.89691 | -84.42491 | 18418 ft | 403 kts | 65° |
| 2026-04-17 10:56 | 9.91177 | -84.40114 | 16940 ft | 398 kts | 47° |
| 2026-04-17 10:57 | 9.93309 | -84.38359 | 15502 ft | 395 kts | 29° |
| 2026-04-17 10:57 | 9.95858 | -84.37389 | 14202 ft | 392 kts | 12° |
| 2026-04-17 10:57 | 9.98509 | -84.37072 | 12768 ft | 388 kts | 359° |
| 2026-04-17 10:57 | 10.01136 | -84.37459 | 11701 ft | 375 kts | 340° |
| 2026-04-17 10:58 | 10.03376 | -84.38623 | 11084 ft | 349 kts | 326° |
| 2026-04-17 10:58 | 10.05240 | -84.40025 | 10837 ft | 319 kts | 316° |
| 2026-04-17 10:58 | 10.06653 | -84.41609 | 10752 ft | 288 kts | 302° |
| 2026-04-17 10:58 | 10.07483 | -84.43349 | 10750 ft | 267 kts | 282° |
| 2026-04-17 10:59 | 10.07558 | -84.45192 | 10752 ft | 260 kts | 258° |
| 2026-04-17 10:59 | 10.07114 | -84.46931 | 10650 ft | 254 kts | 249° |
| 2026-04-17 10:59 | 10.06294 | -84.48500 | 10015 ft | 255 kts | 231° |
| 2026-04-17 10:59 | 10.04921 | -84.49615 | 9456 ft | 252 kts | 204° |
| 2026-04-17 11:00 | 10.03273 | -84.49969 | 9038 ft | 237 kts | 178° |
| 2026-04-17 11:00 | 10.01720 | -84.49443 | 8071 ft | 244 kts | 142° |
| 2026-04-17 11:00 | 10.00466 | -84.48221 | 6994 ft | 258 kts | 130° |
| 2026-04-17 11:00 | 9.99233 | -84.46812 | 6263 ft | 273 kts | 129° |
| 2026-04-17 11:01 | 9.97955 | -84.45371 | 5889 ft | 275 kts | 130° |
| 2026-04-17 11:01 | 9.96659 | -84.43939 | 5886 ft | 276 kts | 131° |
| 2026-04-17 11:01 | 9.95364 | -84.42540 | 5893 ft | 260 kts | 131° |
| 2026-04-17 11:01 | 9.94222 | -84.41309 | 5911 ft | 229 kts | 130° |
| 2026-04-17 11:02 | 9.93322 | -84.40031 | 5920 ft | 218 kts | 113° |
| 2026-04-17 11:02 | 9.92989 | -84.38571 | 5897 ft | 208 kts | 88° |
| 2026-04-17 11:02 | 9.93266 | -84.37212 | 5732 ft | 188 kts | 71° |
| 2026-04-17 11:02 | 9.93703 | -84.36026 | 5467 ft | 173 kts | 68° |
| 2026-04-17 11:03 | 9.94161 | -84.34924 | 5112 ft | 165 kts | 68° |
| 2026-04-17 11:03 | 9.94559 | -84.33841 | 5004 ft | 165 kts | 69° |
| 2026-04-17 11:03 | 9.94958 | -84.32759 | 4995 ft | 167 kts | 69° |
| 2026-04-17 11:03 | 9.95369 | -84.31662 | 4950 ft | 167 kts | 69° |
| 2026-04-17 11:04 | 9.95782 | -84.30568 | 4752 ft | 165 kts | 69° |
| 2026-04-17 11:04 | 9.96185 | -84.29482 | 4537 ft | 164 kts | 69° |
| 2026-04-17 11:04 | 9.96590 | -84.28397 | 4331 ft | 164 kts | 71° |
| 2026-04-17 11:04 | 9.96990 | -84.27320 | 4112 ft | 162 kts | 71° |
| 2026-04-17 11:05 | 9.97388 | -84.26250 | 3880 ft | 162 kts | 69° |
| 2026-04-17 11:05 | 9.97785 | -84.25186 | 3654 ft | 163 kts | 70° |
| 2026-04-17 11:05 | 9.98186 | -84.24111 | 3414 ft | 164 kts | 69° |
| 2026-04-17 11:05 | 9.98586 | -84.23036 | 3188 ft | 161 kts | 70° |
| 2026-04-17 11:06 | 9.98985 | -84.21983 | 2970 ft | 157 kts | 69° |
| 2026-04-17 11:06 | 9.99320 | -84.21078 | 2986 ft | 114 kts | 69° |
| 2026-04-17 11:06 | 9.99556 | -84.20442 | 3015 ft | 80 kts | 69° |
| 2026-04-17 11:06 | 9.99709 | -84.20038 | 3034 ft | 21 kts | 61° |
| 2026-04-17 11:07 | 9.99772 | -84.20008 | 3037 ft | 8 kts | 353° |
| 2026-04-17 11:07 | 9.99788 | -84.20016 | 3036 ft | 0 kts | 329° |
| 2026-04-17 11:07 | 9.99790 | -84.20017 | 3036 ft | 1 kts | 329° |
| 2026-04-17 11:07 | 9.99795 | -84.20020 | 3036 ft | 1 kts | 329° |
| 2026-04-17 11:08 | 9.99804 | -84.20026 | 3037 ft | 2 kts | 329° |
| 2026-04-17 11:08 | 9.99807 | -84.20028 | 3037 ft | 0 kts | 329° |
| 2026-04-17 11:08 | 9.99819 | -84.20046 | 3034 ft | 10 kts | 304° |
| 2026-04-17 11:08 | 9.99837 | -84.20077 | 3035 ft | 3 kts | 305° |
| 2026-04-17 11:09 | 9.99852 | -84.20086 | 3036 ft | 0 kts | 332° |